EDW70 LSZH-FIMP
Flight info
| Callsign | EDW70 |
|---|---|
| Flight time | N/A |
| Altitude | 37000 |
| Route | DEGES Z2 XEBIX L607 ELMEM N606 GIRIS DCT NIVAS DCT PEVAL DCT AIOSA DCT LATAN DCT SALUN N705 BOPIX N710 TAKRI P751 LXR/N0488F390 M999 JDW G650 RASKA/N0494F380 G650 ULONI UG650 ASM/N0487F400 UG650 KONET/N0489F390 DCT XADOX DCT DWA UN304 MOGDU/N0485F410 UN304 APKAK/N0487F400 UN304 DENLI/N0485F410 UN304 MAEVA UL433 APKOT DCT TIBAG TIBAG2E |
| Aircraft | A359/H-SDE2E3GHIJ3J4J5LM1ORWXY/LB1D1 |
Departure
| Time | 2026-05-07 08:15 |
|---|---|
| Airport | Zürich Airport (LSZH) |
Arrival
| Time | N/A |
|---|---|
| Airport | Sir Seewoosagur Ramgoolam International Airport (FIMP) |
| Time | Latitude | Longitude | Altitude | Speed | Heading |
|---|---|---|---|---|---|
| 2026-05-07 07:49 | 47.46048 | 8.55528 | 1406 ft | 0 kts | 6° |
| 2026-05-07 08:03 | 47.46026 | 8.55525 | 1413 ft | 4 kts | 6° |
| 2026-05-07 08:04 | 47.45999 | 8.55522 | 1412 ft | 2 kts | 6° |
| 2026-05-07 08:04 | 47.45980 | 8.55521 | 1412 ft | 4 kts | 327° |
| 2026-05-07 08:04 | 47.45964 | 8.55547 | 1416 ft | 4 kts | 296° |
| 2026-05-07 08:04 | 47.45959 | 8.55584 | 1410 ft | 4 kts | 272° |
| 2026-05-07 08:05 | 47.45957 | 8.55616 | 1407 ft | 4 kts | 276° |
| 2026-05-07 08:05 | 47.45954 | 8.55655 | 1408 ft | 3 kts | 276° |
| 2026-05-07 08:05 | 47.45955 | 8.55660 | 1408 ft | 0 kts | 276° |
| 2026-05-07 08:08 | 47.45956 | 8.55645 | 1408 ft | 4 kts | 275° |
| 2026-05-07 08:08 | 47.45960 | 8.55584 | 1410 ft | 8 kts | 275° |
| 2026-05-07 08:08 | 47.45967 | 8.55480 | 1409 ft | 12 kts | 276° |
| 2026-05-07 08:08 | 47.45977 | 8.55337 | 1412 ft | 16 kts | 276° |
| 2026-05-07 08:09 | 47.45990 | 8.55160 | 1408 ft | 19 kts | 276° |
| 2026-05-07 08:09 | 47.45999 | 8.55011 | 1400 ft | 0 kts | 276° |
| 2026-05-07 08:09 | 47.46005 | 8.54977 | 1402 ft | 8 kts | 287° |
| 2026-05-07 08:10 | 47.46082 | 8.54898 | 1400 ft | 19 kts | 335° |
| 2026-05-07 08:10 | 47.46226 | 8.54799 | 1404 ft | 26 kts | 335° |
| 2026-05-07 08:10 | 47.46385 | 8.54691 | 1403 ft | 24 kts | 335° |
| 2026-05-07 08:10 | 47.46521 | 8.54596 | 1399 ft | 22 kts | 335° |
| 2026-05-07 08:11 | 47.46670 | 8.54493 | 1404 ft | 26 kts | 335° |
| 2026-05-07 08:11 | 47.46849 | 8.54384 | 1384 ft | 30 kts | 337° |
| 2026-05-07 08:11 | 47.47042 | 8.54252 | 1403 ft | 31 kts | 335° |
| 2026-05-07 08:11 | 47.47243 | 8.54113 | 1402 ft | 31 kts | 335° |
| 2026-05-07 08:12 | 47.47419 | 8.53992 | 1402 ft | 25 kts | 335° |
| 2026-05-07 08:12 | 47.47562 | 8.53890 | 1410 ft | 20 kts | 329° |
| 2026-05-07 08:12 | 47.47602 | 8.53745 | 1410 ft | 13 kts | 257° |
| 2026-05-07 08:12 | 47.47577 | 8.53645 | 1408 ft | 8 kts | 248° |
| 2026-05-07 08:13 | 47.47559 | 8.53607 | 1414 ft | 1 kts | 210° |
| 2026-05-07 08:13 | 47.47546 | 8.53611 | 1409 ft | 2 kts | 159° |
| 2026-05-07 08:13 | 47.47545 | 8.53613 | 1409 ft | 0 kts | 155° |
| 2026-05-07 08:14 | 47.47396 | 8.53714 | 1405 ft | 56 kts | 155° |
| 2026-05-07 08:14 | 47.46840 | 8.54099 | 1385 ft | 118 kts | 155° |
| 2026-05-07 08:15 | 47.45931 | 8.54737 | 1414 ft | 168 kts | 152° |
| 2026-05-07 08:15 | 47.44908 | 8.55475 | 2101 ft | 162 kts | 158° |
| 2026-05-07 08:15 | 47.43860 | 8.56207 | 2715 ft | 177 kts | 156° |
| 2026-05-07 08:15 | 47.43022 | 8.57643 | 2933 ft | 197 kts | 117° |
| 2026-05-07 08:16 | 47.42878 | 8.59643 | 3369 ft | 202 kts | 72° |
| 2026-05-07 08:16 | 47.43720 | 8.61281 | 3770 ft | 205 kts | 32° |
| 2026-05-07 08:16 | 47.44771 | 8.62807 | 4075 ft | 222 kts | 54° |
| 2026-05-07 08:16 | 47.45489 | 8.64908 | 4326 ft | 242 kts | 70° |
| 2026-05-07 08:17 | 47.45937 | 8.67410 | 4577 ft | 261 kts | 79° |
| 2026-05-07 08:17 | 47.46198 | 8.70167 | 4895 ft | 277 kts | 84° |
| 2026-05-07 08:17 | 47.46349 | 8.73063 | 5451 ft | 284 kts | 86° |
| 2026-05-07 08:17 | 47.46450 | 8.75967 | 6159 ft | 287 kts | 88° |
| 2026-05-07 08:18 | 47.46547 | 8.78928 | 6869 ft | 291 kts | 87° |
| 2026-05-07 08:18 | 47.46620 | 8.81949 | 7562 ft | 295 kts | 93° |
| 2026-05-07 08:18 | 47.46335 | 8.84960 | 8388 ft | 296 kts | 102° |
| 2026-05-07 08:18 | 47.45914 | 8.87932 | 9117 ft | 299 kts | 103° |
| 2026-05-07 08:19 | 47.45467 | 8.90956 | 9770 ft | 304 kts | 103° |
| 2026-05-07 08:19 | 47.45020 | 8.94045 | 10395 ft | 310 kts | 103° |
| 2026-05-07 08:19 | 47.44559 | 8.97256 | 10674 ft | 327 kts | 103° |
| 2026-05-07 08:19 | 47.44080 | 9.00590 | 10917 ft | 344 kts | 103° |
| 2026-05-07 08:20 | 47.43572 | 9.04160 | 11174 ft | 361 kts | 103° |
| 2026-05-07 08:20 | 47.43040 | 9.07848 | 11436 ft | 376 kts | 103° |
| 2026-05-07 08:20 | 47.42480 | 9.11716 | 11746 ft | 389 kts | 103° |
| 2026-05-07 08:20 | 47.41910 | 9.15650 | 12317 ft | 393 kts | 103° |
| 2026-05-07 08:21 | 47.41496 | 9.19616 | 12893 ft | 399 kts | 93° |
| 2026-05-07 08:21 | 47.41667 | 9.23746 | 13421 ft | 405 kts | 82° |
| 2026-05-07 08:21 | 47.42163 | 9.27859 | 14090 ft | 407 kts | 78° |
| 2026-05-07 08:21 | 47.42804 | 9.31958 | 14559 ft | 413 kts | 76° |
| 2026-05-07 08:22 | 47.43497 | 9.36046 | 15191 ft | 413 kts | 76° |
| 2026-05-07 08:22 | 47.44200 | 9.40199 | 15757 ft | 416 kts | 76° |
| 2026-05-07 08:22 | 47.44879 | 9.44332 | 16276 ft | 419 kts | 77° |
| 2026-05-07 08:22 | 47.45547 | 9.48553 | 16831 ft | 422 kts | 77° |
| 2026-05-07 08:23 | 47.46202 | 9.52825 | 17366 ft | 426 kts | 77° |
| 2026-05-07 08:23 | 47.46817 | 9.57090 | 17900 ft | 429 kts | 81° |
| 2026-05-07 08:23 | 47.47054 | 9.61511 | 18427 ft | 431 kts | 90° |
| 2026-05-07 08:23 | 47.47000 | 9.65936 | 18918 ft | 434 kts | 93° |
| 2026-05-07 08:24 | 47.46819 | 9.70421 | 19446 ft | 436 kts | 95° |
| 2026-05-07 08:24 | 47.46572 | 9.74878 | 19987 ft | 438 kts | 96° |
| 2026-05-07 08:24 | 47.46298 | 9.79353 | 20505 ft | 441 kts | 96° |
| 2026-05-07 08:24 | 47.46015 | 9.83906 | 21025 ft | 443 kts | 95° |
| 2026-05-07 08:25 | 47.45739 | 9.88430 | 21543 ft | 446 kts | 95° |
| 2026-05-07 08:25 | 47.45466 | 9.93035 | 22063 ft | 448 kts | 95° |
| 2026-05-07 08:25 | 47.45201 | 9.97593 | 22576 ft | 451 kts | 95° |
| 2026-05-07 08:25 | 47.44933 | 10.02249 | 23085 ft | 454 kts | 95° |
| 2026-05-07 08:26 | 47.44394 | 10.11628 | 23793 ft | 465 kts | 95° |
| 2026-05-07 08:26 | 47.44105 | 10.16357 | 24334 ft | 465 kts | 97° |
| 2026-05-07 08:26 | 47.43606 | 10.21124 | 24685 ft | 469 kts | 100° |
| 2026-05-07 08:27 | 47.43022 | 10.25883 | 25090 ft | 471 kts | 101° |
| 2026-05-07 08:27 | 47.42405 | 10.30571 | 25544 ft | 472 kts | 102° |
| 2026-05-07 08:27 | 47.41745 | 10.35370 | 25879 ft | 477 kts | 103° |
| 2026-05-07 08:27 | 47.40792 | 10.40056 | 26310 ft | 477 kts | 112° |
| 2026-05-07 08:28 | 47.39339 | 10.44492 | 26716 ft | 477 kts | 123° |
| 2026-05-07 08:28 | 47.37392 | 10.48394 | 27165 ft | 474 kts | 135° |
| 2026-05-07 08:28 | 47.35000 | 10.51654 | 27574 ft | 471 kts | 146° |
| 2026-05-07 08:28 | 47.32258 | 10.54290 | 27974 ft | 470 kts | 153° |
| 2026-05-07 08:29 | 47.29390 | 10.56683 | 28338 ft | 471 kts | 155° |
| 2026-05-07 08:29 | 47.26485 | 10.58957 | 28665 ft | 473 kts | 155° |
| 2026-05-07 08:29 | 47.23586 | 10.61175 | 28993 ft | 475 kts | 156° |
| 2026-05-07 08:29 | 47.20618 | 10.63441 | 29262 ft | 478 kts | 156° |
| 2026-05-07 08:30 | 47.17674 | 10.65620 | 29614 ft | 478 kts | 159° |
| 2026-05-07 08:30 | 47.14596 | 10.67481 | 29957 ft | 478 kts | 162° |
| 2026-05-07 08:30 | 47.11487 | 10.69252 | 30332 ft | 477 kts | 162° |
| 2026-05-07 08:30 | 47.08372 | 10.70979 | 30739 ft | 476 kts | 163° |
| 2026-05-07 08:31 | 47.05301 | 10.72657 | 31137 ft | 474 kts | 163° |
| 2026-05-07 08:31 | 47.02205 | 10.74340 | 31615 ft | 468 kts | 164° |
| 2026-05-07 08:31 | 46.99209 | 10.75987 | 32192 ft | 463 kts | 163° |
| 2026-05-07 08:31 | 46.96178 | 10.77685 | 32454 ft | 465 kts | 163° |
| 2026-05-07 08:32 | 46.94166 | 10.78821 | 32596 ft | 466 kts | 163° |
| 2026-05-07 08:32 | 46.90146 | 10.81100 | 32897 ft | 467 kts | 163° |
| 2026-05-07 08:32 | 46.88137 | 10.82237 | 33060 ft | 466 kts | 163° |
| 2026-05-07 08:32 | 46.85091 | 10.83958 | 33381 ft | 466 kts | 163° |
| 2026-05-07 08:33 | 46.82068 | 10.85689 | 33609 ft | 468 kts | 161° |
| 2026-05-07 08:33 | 46.79162 | 10.87777 | 33877 ft | 472 kts | 155° |
| 2026-05-07 08:33 | 46.76408 | 10.90467 | 34102 ft | 479 kts | 147° |
| 2026-05-07 08:33 | 46.73916 | 10.93766 | 34268 ft | 484 kts | 139° |
| 2026-05-07 08:34 | 46.71590 | 10.97355 | 34490 ft | 486 kts | 137° |
| 2026-05-07 08:34 | 46.69357 | 11.00984 | 34609 ft | 487 kts | 136° |
| 2026-05-07 08:34 | 46.67115 | 11.04716 | 34901 ft | 485 kts | 136° |
| 2026-05-07 08:34 | 46.64923 | 11.08379 | 35137 ft | 485 kts | 136° |
| 2026-05-07 08:35 | 46.60428 | 11.15806 | 35267 ft | 488 kts | 137° |
| 2026-05-07 08:35 | 46.58165 | 11.19504 | 35420 ft | 489 kts | 137° |
| 2026-05-07 08:35 | 46.55927 | 11.23145 | 35600 ft | 488 kts | 137° |
| 2026-05-07 08:36 | 46.53644 | 11.26849 | 35824 ft | 488 kts | 137° |
| 2026-05-07 08:36 | 46.51397 | 11.30489 | 35997 ft | 488 kts | 137° |
| 2026-05-07 08:36 | 46.49116 | 11.34177 | 36135 ft | 489 kts | 137° |
| 2026-05-07 08:36 | 46.46872 | 11.37804 | 36366 ft | 487 kts | 137° |
| 2026-05-07 08:37 | 46.44604 | 11.41465 | 36519 ft | 486 kts | 137° |
| 2026-05-07 08:37 | 46.42326 | 11.45136 | 36651 ft | 487 kts | 137° |
| 2026-05-07 08:37 | 46.40081 | 11.48747 | 36761 ft | 487 kts | 137° |
| 2026-05-07 08:37 | 46.37801 | 11.52411 | 36868 ft | 488 kts | 137° |
| 2026-05-07 08:38 | 46.33245 | 11.59716 | 36958 ft | 493 kts | 137° |
| 2026-05-07 08:38 | 46.28636 | 11.67088 | 36953 ft | 495 kts | 137° |
| 2026-05-07 08:39 | 46.24002 | 11.74489 | 36955 ft | 494 kts | 137° |
| 2026-05-07 08:39 | 46.19399 | 11.81815 | 36962 ft | 494 kts | 137° |
| 2026-05-07 08:40 | 46.14770 | 11.89161 | 36960 ft | 494 kts | 137° |
| 2026-05-07 08:40 | 46.10152 | 11.96468 | 36961 ft | 494 kts | 137° |
| 2026-05-07 08:41 | 46.05509 | 12.03800 | 36960 ft | 493 kts | 137° |
| 2026-05-07 08:41 | 46.00898 | 12.11058 | 36962 ft | 493 kts | 138° |
| 2026-05-07 08:42 | 45.96253 | 12.18350 | 36966 ft | 492 kts | 138° |
| 2026-05-07 08:42 | 45.91634 | 12.25581 | 36967 ft | 493 kts | 138° |
| 2026-05-07 08:43 | 45.87045 | 12.32868 | 36964 ft | 494 kts | 136° |
| 2026-05-07 08:43 | 45.82567 | 12.40382 | 36970 ft | 494 kts | 136° |
| 2026-05-07 08:44 | 45.78136 | 12.47844 | 36968 ft | 494 kts | 136° |
| 2026-05-07 08:44 | 45.73645 | 12.55325 | 36969 ft | 493 kts | 136° |
| 2026-05-07 08:45 | 45.69164 | 12.62730 | 36951 ft | 493 kts | 136° |
| 2026-05-07 08:45 | 45.64677 | 12.70117 | 36977 ft | 493 kts | 136° |
| 2026-05-07 08:46 | 45.60161 | 12.77534 | 36979 ft | 494 kts | 136° |
| 2026-05-07 08:46 | 45.55636 | 12.84947 | 36976 ft | 494 kts | 137° |
| 2026-05-07 08:47 | 45.51125 | 12.92319 | 36984 ft | 494 kts | 137° |
| 2026-05-07 08:47 | 45.46604 | 12.99688 | 36981 ft | 494 kts | 137° |
| 2026-05-07 08:48 | 45.42085 | 13.07034 | 36988 ft | 494 kts | 137° |
| 2026-05-07 08:48 | 45.37540 | 13.14403 | 36993 ft | 495 kts | 137° |
| 2026-05-07 08:49 | 45.33011 | 13.21725 | 36994 ft | 495 kts | 137° |
| 2026-05-07 08:49 | 45.28148 | 13.28571 | 36996 ft | 490 kts | 143° |
| 2026-05-07 08:50 | 45.23116 | 13.35046 | 37011 ft | 490 kts | 144° |
| 2026-05-07 08:50 | 45.18031 | 13.41483 | 36997 ft | 490 kts | 144° |
| 2026-05-07 08:51 | 45.12956 | 13.47898 | 37014 ft | 490 kts | 144° |
| 2026-05-07 08:51 | 45.07872 | 13.54326 | 36988 ft | 490 kts | 144° |
| 2026-05-07 08:52 | 45.02776 | 13.60763 | 37018 ft | 489 kts | 144° |
| 2026-05-07 08:52 | 44.97724 | 13.67128 | 37019 ft | 488 kts | 144° |
| 2026-05-07 08:53 | 44.92716 | 13.73419 | 37014 ft | 488 kts | 144° |
| 2026-05-07 08:53 | 44.87653 | 13.79763 | 37020 ft | 488 kts | 144° |
| 2026-05-07 08:54 | 44.82556 | 13.86136 | 37020 ft | 487 kts | 144° |
| 2026-05-07 08:54 | 44.77514 | 13.92426 | 37021 ft | 486 kts | 145° |
| 2026-05-07 08:55 | 44.72435 | 13.98744 | 37022 ft | 486 kts | 145° |
| 2026-05-07 08:55 | 44.67394 | 14.05000 | 37021 ft | 486 kts | 145° |
| 2026-05-07 08:56 | 44.62301 | 14.11304 | 37002 ft | 486 kts | 144° |
| 2026-05-07 08:56 | 44.57234 | 14.17563 | 37022 ft | 485 kts | 145° |
| 2026-05-07 08:57 | 44.52160 | 14.23815 | 37021 ft | 485 kts | 145° |
| 2026-05-07 08:57 | 44.47112 | 14.30020 | 37017 ft | 485 kts | 145° |
| 2026-05-07 08:58 | 44.42011 | 14.36274 | 37019 ft | 486 kts | 145° |
| 2026-05-07 08:58 | 44.36936 | 14.42481 | 37020 ft | 487 kts | 144° |
| 2026-05-07 08:59 | 44.31820 | 14.48724 | 37021 ft | 487 kts | 144° |
| 2026-05-07 08:59 | 44.26723 | 14.54930 | 37017 ft | 487 kts | 144° |
| 2026-05-07 09:00 | 44.21593 | 14.61161 | 37025 ft | 488 kts | 144° |
| 2026-05-07 09:00 | 44.16491 | 14.67342 | 37024 ft | 488 kts | 145° |
| 2026-05-07 09:01 | 44.11373 | 14.73528 | 37022 ft | 488 kts | 145° |
| 2026-05-07 09:01 | 44.06228 | 14.79732 | 37018 ft | 488 kts | 145° |
| 2026-05-07 09:02 | 44.01118 | 14.85879 | 37002 ft | 488 kts | 144° |
| 2026-05-07 09:02 | 43.95956 | 14.92072 | 37020 ft | 489 kts | 144° |
| 2026-05-07 09:03 | 43.90812 | 14.98229 | 37017 ft | 491 kts | 144° |
| 2026-05-07 09:03 | 43.85626 | 15.04425 | 37020 ft | 491 kts | 144° |
| 2026-05-07 09:04 | 43.80457 | 15.10585 | 37019 ft | 491 kts | 144° |
| 2026-05-07 09:04 | 43.75289 | 15.16730 | 37016 ft | 491 kts | 144° |
| 2026-05-07 09:05 | 43.70089 | 15.22896 | 37011 ft | 491 kts | 144° |
| 2026-05-07 09:05 | 43.64909 | 15.29025 | 36994 ft | 491 kts | 144° |
| 2026-05-07 09:06 | 43.59698 | 15.35174 | 37013 ft | 491 kts | 144° |
| 2026-05-07 09:06 | 43.54515 | 15.41278 | 37012 ft | 491 kts | 144° |
| 2026-05-07 09:07 | 43.49331 | 15.47367 | 37015 ft | 492 kts | 144° |
| 2026-05-07 09:07 | 43.44111 | 15.53486 | 37015 ft | 492 kts | 144° |
| 2026-05-07 09:08 | 43.38905 | 15.59573 | 37015 ft | 492 kts | 144° |
| 2026-05-07 09:08 | 43.33676 | 15.65673 | 37005 ft | 492 kts | 144° |
| 2026-05-07 09:09 | 43.28492 | 15.71707 | 37016 ft | 490 kts | 144° |
| 2026-05-07 09:09 | 43.23267 | 15.77774 | 37013 ft | 490 kts | 144° |
| 2026-05-07 09:10 | 43.18084 | 15.83778 | 37020 ft | 490 kts | 144° |
| 2026-05-07 09:10 | 43.12878 | 15.89795 | 37015 ft | 490 kts | 144° |
| 2026-05-07 09:11 | 43.07672 | 15.95798 | 37017 ft | 490 kts | 144° |
| 2026-05-07 09:11 | 43.02427 | 16.01832 | 37013 ft | 490 kts | 144° |
| 2026-05-07 09:12 | 42.97210 | 16.07820 | 37026 ft | 490 kts | 144° |
| 2026-05-07 09:12 | 42.91994 | 16.13795 | 37025 ft | 490 kts | 144° |
| 2026-05-07 09:13 | 42.86781 | 16.19750 | 37009 ft | 490 kts | 144° |
| 2026-05-07 09:13 | 42.81564 | 16.25696 | 37032 ft | 490 kts | 144° |
| 2026-05-07 09:14 | 42.76317 | 16.31664 | 37031 ft | 491 kts | 144° |
| 2026-05-07 09:14 | 42.71094 | 16.37590 | 37035 ft | 490 kts | 144° |
| 2026-05-07 09:15 | 42.65867 | 16.43511 | 37037 ft | 489 kts | 144° |
| 2026-05-07 09:15 | 42.60621 | 16.49436 | 37040 ft | 489 kts | 144° |
| 2026-05-07 09:16 | 42.55371 | 16.55352 | 37041 ft | 490 kts | 144° |
| 2026-05-07 09:16 | 42.50139 | 16.61235 | 37039 ft | 490 kts | 144° |
| 2026-05-07 09:17 | 42.44907 | 16.67107 | 37042 ft | 490 kts | 144° |
| 2026-05-07 09:17 | 42.39633 | 16.73011 | 37040 ft | 490 kts | 144° |
| 2026-05-07 09:18 | 42.34384 | 16.78874 | 37048 ft | 492 kts | 144° |
| 2026-05-07 09:18 | 42.29981 | 16.83781 | 37049 ft | 492 kts | 144° |
| 2026-05-07 09:19 | 42.24711 | 16.89644 | 37046 ft | 492 kts | 144° |
| 2026-05-07 09:19 | 42.19399 | 16.95541 | 37054 ft | 492 kts | 144° |
| 2026-05-07 09:20 | 42.14126 | 17.01380 | 37042 ft | 492 kts | 145° |
| 2026-05-07 09:20 | 42.08812 | 17.07251 | 37065 ft | 493 kts | 145° |
| 2026-05-07 09:21 | 42.03535 | 17.13069 | 37068 ft | 491 kts | 145° |
| 2026-05-07 09:21 | 41.98265 | 17.18868 | 37057 ft | 491 kts | 145° |
| 2026-05-07 09:22 | 41.92862 | 17.24513 | 37076 ft | 487 kts | 152° |
| 2026-05-07 09:22 | 41.87000 | 17.28941 | 37065 ft | 485 kts | 156° |
| 2026-05-07 09:23 | 41.81026 | 17.33089 | 37067 ft | 485 kts | 157° |
| 2026-05-07 09:23 | 41.75002 | 17.37211 | 37069 ft | 485 kts | 157° |
| 2026-05-07 09:24 | 41.68998 | 17.41332 | 37057 ft | 484 kts | 157° |
| 2026-05-07 09:24 | 41.63029 | 17.45440 | 37064 ft | 484 kts | 157° |
| 2026-05-07 09:25 | 41.57035 | 17.49561 | 37069 ft | 484 kts | 157° |
| 2026-05-07 09:25 | 41.51020 | 17.53687 | 37070 ft | 484 kts | 157° |
| 2026-05-07 09:26 | 41.45056 | 17.57770 | 37067 ft | 484 kts | 157° |
| 2026-05-07 09:26 | 41.39037 | 17.61881 | 37070 ft | 484 kts | 157° |
| 2026-05-07 09:27 | 41.33063 | 17.65952 | 37072 ft | 484 kts | 157° |
| 2026-05-07 09:28 | 41.24075 | 17.72062 | 37069 ft | 484 kts | 157° |
| 2026-05-07 09:28 | 41.18053 | 17.76145 | 37065 ft | 485 kts | 157° |
| 2026-05-07 09:29 | 41.12062 | 17.80198 | 37071 ft | 485 kts | 157° |
| 2026-05-07 09:29 | 41.06057 | 17.84253 | 37071 ft | 485 kts | 158° |
| 2026-05-07 09:30 | 41.00028 | 17.88316 | 37081 ft | 485 kts | 158° |
| 2026-05-07 09:30 | 40.94018 | 17.92357 | 37077 ft | 486 kts | 158° |
| 2026-05-07 09:31 | 40.87963 | 17.96420 | 37077 ft | 487 kts | 158° |
| 2026-05-07 09:31 | 40.81943 | 18.00452 | 37076 ft | 487 kts | 158° |
| 2026-05-07 09:32 | 40.75921 | 18.04477 | 37035 ft | 487 kts | 158° |
| 2026-05-07 09:32 | 40.69816 | 18.08547 | 37052 ft | 490 kts | 158° |
| 2026-05-07 09:33 | 40.63764 | 18.12574 | 37055 ft | 491 kts | 158° |
| 2026-05-07 09:33 | 40.57670 | 18.16623 | 37064 ft | 491 kts | 158° |
| 2026-05-07 09:34 | 40.51552 | 18.20679 | 37061 ft | 491 kts | 158° |
| 2026-05-07 09:34 | 40.45426 | 18.24729 | 37098 ft | 497 kts | 158° |
| 2026-05-07 09:35 | 40.39218 | 18.28827 | 37102 ft | 498 kts | 158° |
| 2026-05-07 09:35 | 40.33054 | 18.32891 | 37101 ft | 497 kts | 158° |
| 2026-05-07 09:36 | 40.26892 | 18.36942 | 37099 ft | 498 kts | 159° |
| 2026-05-07 09:36 | 40.20649 | 18.41035 | 37101 ft | 501 kts | 159° |
| 2026-05-07 09:37 | 40.14450 | 18.45093 | 37104 ft | 502 kts | 159° |
| 2026-05-07 09:37 | 40.08189 | 18.49185 | 37106 ft | 502 kts | 159° |
| 2026-05-07 09:38 | 40.01957 | 18.53249 | 37106 ft | 504 kts | 159° |
| 2026-05-07 09:38 | 39.95662 | 18.57343 | 37110 ft | 505 kts | 159° |
| 2026-05-07 09:39 | 39.89377 | 18.61425 | 37112 ft | 505 kts | 159° |
| 2026-05-07 09:39 | 39.83094 | 18.65497 | 37110 ft | 505 kts | 159° |
| 2026-05-07 09:40 | 39.76766 | 18.69588 | 37110 ft | 508 kts | 160° |
| 2026-05-07 09:40 | 39.70416 | 18.73683 | 37107 ft | 511 kts | 160° |
| 2026-05-07 09:41 | 39.64038 | 18.77792 | 37106 ft | 511 kts | 160° |
| 2026-05-07 09:41 | 39.57691 | 18.81873 | 37083 ft | 510 kts | 160° |
| 2026-05-07 09:42 | 39.51340 | 18.85945 | 37112 ft | 513 kts | 160° |
| 2026-05-07 09:42 | 39.44918 | 18.90054 | 37110 ft | 514 kts | 160° |
| 2026-05-07 09:43 | 39.38518 | 18.94143 | 37106 ft | 514 kts | 160° |
| 2026-05-07 09:43 | 39.32070 | 18.98274 | 37087 ft | 516 kts | 159° |
| 2026-05-07 09:44 | 39.26107 | 19.03631 | 37109 ft | 531 kts | 146° |
| 2026-05-07 09:44 | 39.20500 | 19.09828 | 37110 ft | 534 kts | 144° |
| 2026-05-07 09:45 | 39.14952 | 19.16159 | 37112 ft | 533 kts | 144° |
| 2026-05-07 09:45 | 39.09365 | 19.22500 | 37098 ft | 532 kts | 144° |
| 2026-05-07 09:46 | 39.03811 | 19.28747 | 37103 ft | 532 kts | 144° |
| 2026-05-07 09:46 | 38.98236 | 19.34985 | 37122 ft | 532 kts | 144° |
| 2026-05-07 09:47 | 38.92624 | 19.41251 | 37121 ft | 532 kts | 144° |
| 2026-05-07 09:47 | 38.87040 | 19.47474 | 37112 ft | 532 kts | 144° |
| 2026-05-07 09:48 | 38.81445 | 19.53697 | 37113 ft | 531 kts | 144° |
| 2026-05-07 09:48 | 38.75861 | 19.59894 | 37113 ft | 534 kts | 145° |
| 2026-05-07 09:49 | 38.70247 | 19.66107 | 37112 ft | 536 kts | 145° |
| 2026-05-07 09:49 | 38.64590 | 19.72359 | 37117 ft | 536 kts | 145° |
| 2026-05-07 09:50 | 38.58953 | 19.78576 | 37116 ft | 536 kts | 145° |
| 2026-05-07 09:50 | 38.53313 | 19.84782 | 37115 ft | 536 kts | 145° |
| 2026-05-07 09:51 | 38.47639 | 19.91009 | 37115 ft | 541 kts | 146° |
| 2026-05-07 09:51 | 38.41916 | 19.97274 | 37115 ft | 544 kts | 146° |
| 2026-05-07 09:52 | 38.36141 | 20.03591 | 37115 ft | 544 kts | 146° |
| 2026-05-07 09:52 | 38.30414 | 20.09841 | 37116 ft | 544 kts | 146° |
| 2026-05-07 09:53 | 38.24676 | 20.16086 | 37110 ft | 544 kts | 146° |
| 2026-05-07 09:53 | 38.18877 | 20.22378 | 37123 ft | 550 kts | 146° |
| 2026-05-07 09:54 | 38.13019 | 20.28721 | 37124 ft | 555 kts | 146° |
| 2026-05-07 09:54 | 38.07154 | 20.35068 | 37127 ft | 555 kts | 146° |
| 2026-05-07 09:55 | 38.01263 | 20.41429 | 37128 ft | 554 kts | 146° |
| 2026-05-07 09:55 | 37.95398 | 20.47744 | 37131 ft | 556 kts | 146° |
| 2026-05-07 09:56 | 37.89472 | 20.54102 | 37120 ft | 563 kts | 146° |
| 2026-05-07 09:56 | 37.83467 | 20.60537 | 37127 ft | 565 kts | 146° |
| 2026-05-07 09:57 | 37.77495 | 20.66930 | 37126 ft | 564 kts | 146° |
| 2026-05-07 09:57 | 37.71484 | 20.73347 | 37125 ft | 564 kts | 146° |
| 2026-05-07 09:58 | 37.65483 | 20.79735 | 37131 ft | 568 kts | 147° |
| 2026-05-07 09:58 | 37.59417 | 20.86173 | 37127 ft | 574 kts | 146° |
| 2026-05-07 09:59 | 37.53305 | 20.92657 | 37129 ft | 573 kts | 146° |
| 2026-05-07 09:59 | 37.47188 | 20.99133 | 37129 ft | 573 kts | 146° |
| 2026-05-07 10:00 | 37.41099 | 21.05560 | 37113 ft | 573 kts | 146° |
| 2026-05-07 10:00 | 37.34974 | 21.12008 | 37132 ft | 576 kts | 146° |
| 2026-05-07 10:01 | 37.28800 | 21.18496 | 37127 ft | 577 kts | 146° |
| 2026-05-07 10:01 | 37.22654 | 21.24942 | 37135 ft | 576 kts | 146° |
| 2026-05-07 10:02 | 37.16482 | 21.31401 | 37132 ft | 576 kts | 146° |
| 2026-05-07 10:02 | 37.10343 | 21.37807 | 37135 ft | 576 kts | 146° |
| 2026-05-07 10:03 | 37.04195 | 21.44213 | 37138 ft | 576 kts | 146° |
| 2026-05-07 10:03 | 36.98005 | 21.50646 | 37137 ft | 576 kts | 146° |
| 2026-05-07 10:04 | 36.91856 | 21.57023 | 37140 ft | 576 kts | 146° |
| 2026-05-07 10:04 | 36.85701 | 21.63392 | 37116 ft | 576 kts | 146° |
| 2026-05-07 10:05 | 36.79516 | 21.69780 | 37140 ft | 574 kts | 146° |
| 2026-05-07 10:05 | 36.73388 | 21.76094 | 37150 ft | 574 kts | 146° |
| 2026-05-07 10:06 | 36.67244 | 21.82410 | 37142 ft | 574 kts | 146° |
| 2026-05-07 10:06 | 36.62099 | 21.87689 | 37143 ft | 574 kts | 146° |
| 2026-05-07 10:07 | 36.54908 | 21.95051 | 37154 ft | 574 kts | 146° |
| 2026-05-07 10:07 | 36.49754 | 22.00317 | 37148 ft | 575 kts | 146° |
| 2026-05-07 10:08 | 36.43593 | 22.06600 | 37156 ft | 575 kts | 146° |
| 2026-05-07 10:08 | 36.37408 | 22.12895 | 37144 ft | 575 kts | 146° |
| 2026-05-07 10:09 | 36.31208 | 22.19190 | 37140 ft | 576 kts | 146° |
| 2026-05-07 10:09 | 36.24998 | 22.25483 | 37144 ft | 577 kts | 146° |
| 2026-05-07 10:10 | 36.18792 | 22.31758 | 37149 ft | 576 kts | 146° |
| 2026-05-07 10:10 | 36.12554 | 22.38053 | 37141 ft | 576 kts | 146° |
| 2026-05-07 10:11 | 36.06365 | 22.44285 | 37138 ft | 576 kts | 146° |
| 2026-05-07 10:11 | 36.00127 | 22.50553 | 37125 ft | 576 kts | 145° |
| 2026-05-07 10:12 | 35.93933 | 22.56763 | 37144 ft | 575 kts | 145° |
| 2026-05-07 10:12 | 35.87714 | 22.62987 | 37146 ft | 574 kts | 145° |
| 2026-05-07 10:13 | 35.81514 | 22.69178 | 37144 ft | 574 kts | 145° |
| 2026-05-07 10:13 | 35.75320 | 22.75350 | 37145 ft | 574 kts | 145° |
| 2026-05-07 10:14 | 35.69106 | 22.81528 | 37136 ft | 574 kts | 145° |
| 2026-05-07 10:14 | 35.62873 | 22.87714 | 37142 ft | 574 kts | 145° |
| 2026-05-07 10:15 | 35.56673 | 22.93854 | 37146 ft | 574 kts | 145° |
| 2026-05-07 10:15 | 35.50430 | 23.00023 | 37151 ft | 574 kts | 145° |
| 2026-05-07 10:16 | 35.44238 | 23.06130 | 37149 ft | 574 kts | 145° |
| 2026-05-07 10:16 | 35.37983 | 23.12286 | 37151 ft | 574 kts | 145° |
| 2026-05-07 10:17 | 35.31756 | 23.18401 | 37150 ft | 575 kts | 145° |
| 2026-05-07 10:17 | 35.25528 | 23.24506 | 37152 ft | 575 kts | 145° |
| 2026-05-07 10:18 | 35.19296 | 23.30603 | 37153 ft | 575 kts | 145° |
| 2026-05-07 10:18 | 35.13023 | 23.36727 | 37137 ft | 575 kts | 145° |
| 2026-05-07 10:19 | 35.06796 | 23.42794 | 37157 ft | 574 kts | 145° |
| 2026-05-07 10:19 | 35.00519 | 23.48896 | 37154 ft | 575 kts | 144° |
| 2026-05-07 10:20 | 34.94255 | 23.54974 | 37161 ft | 576 kts | 144° |
| 2026-05-07 10:20 | 34.87992 | 23.61039 | 37161 ft | 576 kts | 144° |
| 2026-05-07 10:21 | 34.81733 | 23.67088 | 37172 ft | 576 kts | 144° |
| 2026-05-07 10:21 | 34.75452 | 23.73147 | 37155 ft | 575 kts | 144° |
| 2026-05-07 10:22 | 34.69164 | 23.79198 | 37164 ft | 576 kts | 144° |
| 2026-05-07 10:22 | 34.62894 | 23.85221 | 37161 ft | 577 kts | 144° |
| 2026-05-07 10:23 | 34.56578 | 23.91277 | 37161 ft | 578 kts | 144° |
| 2026-05-07 10:23 | 34.50283 | 23.97301 | 37173 ft | 577 kts | 144° |
| 2026-05-07 10:24 | 34.43955 | 24.03345 | 37161 ft | 576 kts | 144° |
| 2026-05-07 10:24 | 34.37658 | 24.09347 | 37170 ft | 577 kts | 144° |
| 2026-05-07 10:25 | 34.31359 | 24.15338 | 37167 ft | 579 kts | 144° |
| 2026-05-07 10:25 | 34.24995 | 24.21379 | 37148 ft | 579 kts | 143° |
| 2026-05-07 10:26 | 34.18673 | 24.27369 | 37168 ft | 578 kts | 143° |
| 2026-05-07 10:26 | 34.12347 | 24.33352 | 37158 ft | 578 kts | 143° |
| 2026-05-07 10:27 | 34.06033 | 24.39311 | 37180 ft | 578 kts | 143° |
| 2026-05-07 10:27 | 33.99679 | 24.45296 | 37175 ft | 581 kts | 143° |
| 2026-05-07 10:28 | 33.93507 | 24.51615 | 37183 ft | 582 kts | 138° |
| 2026-05-07 10:28 | 33.87563 | 24.58211 | 37179 ft | 581 kts | 137° |
| 2026-05-07 10:29 | 33.81608 | 24.64757 | 37169 ft | 580 kts | 138° |
| 2026-05-07 10:29 | 33.75600 | 24.71231 | 37168 ft | 580 kts | 139° |
| 2026-05-07 10:30 | 33.66545 | 24.80892 | 37167 ft | 581 kts | 139° |
| 2026-05-07 10:30 | 33.60519 | 24.87308 | 37176 ft | 579 kts | 139° |
| 2026-05-07 10:31 | 33.54482 | 24.93730 | 37175 ft | 578 kts | 139° |
| 2026-05-07 10:31 | 33.48481 | 25.00102 | 37174 ft | 578 kts | 139° |
| 2026-05-07 10:32 | 33.42428 | 25.06517 | 37174 ft | 579 kts | 139° |
| 2026-05-07 10:32 | 33.36407 | 25.12886 | 37172 ft | 580 kts | 139° |
| 2026-05-07 10:33 | 33.30351 | 25.19280 | 37177 ft | 580 kts | 139° |
| 2026-05-07 10:33 | 33.24313 | 25.25641 | 37177 ft | 580 kts | 139° |
| 2026-05-07 10:34 | 33.18245 | 25.32022 | 37174 ft | 580 kts | 139° |
| 2026-05-07 10:34 | 33.12207 | 25.38359 | 37183 ft | 581 kts | 139° |
| 2026-05-07 10:35 | 33.06154 | 25.44700 | 37165 ft | 581 kts | 139° |
| 2026-05-07 10:35 | 33.00077 | 25.51054 | 37174 ft | 581 kts | 138° |
| 2026-05-07 10:36 | 32.93986 | 25.57411 | 37175 ft | 580 kts | 139° |
| 2026-05-07 10:36 | 32.87949 | 25.63700 | 37173 ft | 579 kts | 139° |
| 2026-05-07 10:37 | 32.81843 | 25.70045 | 37178 ft | 581 kts | 138° |
| 2026-05-07 10:37 | 32.75769 | 25.76349 | 37174 ft | 582 kts | 138° |
| 2026-05-07 10:38 | 32.69684 | 25.82653 | 37170 ft | 582 kts | 138° |
| 2026-05-07 10:38 | 32.63555 | 25.88988 | 37177 ft | 581 kts | 138° |
| 2026-05-07 10:39 | 32.57479 | 25.95259 | 37188 ft | 581 kts | 138° |
| 2026-05-07 10:39 | 32.51385 | 26.01536 | 37180 ft | 581 kts | 138° |
| 2026-05-07 10:40 | 32.45288 | 26.07803 | 37184 ft | 581 kts | 138° |
| 2026-05-07 10:40 | 32.39159 | 26.14091 | 37182 ft | 581 kts | 138° |
| 2026-05-07 10:41 | 32.33060 | 26.20337 | 37174 ft | 580 kts | 138° |
| 2026-05-07 10:41 | 32.26926 | 26.26608 | 37180 ft | 580 kts | 137° |
| 2026-05-07 10:42 | 32.20835 | 26.32821 | 37176 ft | 579 kts | 137° |
| 2026-05-07 10:42 | 32.14755 | 26.39014 | 37177 ft | 579 kts | 137° |
| 2026-05-07 10:43 | 32.08639 | 26.45234 | 37176 ft | 579 kts | 137° |
| 2026-05-07 10:43 | 32.02547 | 26.51415 | 37172 ft | 578 kts | 137° |
| 2026-05-07 10:44 | 31.96460 | 26.57581 | 37176 ft | 577 kts | 137° |
| 2026-05-07 10:44 | 31.90407 | 26.63701 | 37173 ft | 576 kts | 137° |
| 2026-05-07 10:45 | 31.84316 | 26.69849 | 37169 ft | 576 kts | 137° |
| 2026-05-07 10:45 | 31.78216 | 26.75995 | 37175 ft | 576 kts | 137° |
| 2026-05-07 10:46 | 31.72152 | 26.82093 | 37170 ft | 575 kts | 137° |
| 2026-05-07 10:46 | 31.66066 | 26.88201 | 37187 ft | 574 kts | 137° |
| 2026-05-07 10:47 | 31.60023 | 26.94257 | 37176 ft | 573 kts | 137° |
| 2026-05-07 10:47 | 31.53942 | 27.00340 | 37180 ft | 573 kts | 137° |
| 2026-05-07 10:48 | 31.47886 | 27.06387 | 37175 ft | 573 kts | 137° |
| 2026-05-07 10:48 | 31.41814 | 27.12439 | 37163 ft | 573 kts | 137° |
| 2026-05-07 10:49 | 31.35741 | 27.18482 | 37185 ft | 571 kts | 137° |
| 2026-05-07 10:49 | 31.29183 | 27.23654 | 37216 ft | 571 kts | 152° |
| 2026-05-07 10:50 | 31.22074 | 27.27722 | 37207 ft | 571 kts | 155° |
| 2026-05-07 10:50 | 31.14840 | 27.31603 | 37196 ft | 571 kts | 156° |
| 2026-05-07 10:51 | 31.07619 | 27.35459 | 37182 ft | 571 kts | 155° |
| 2026-05-07 10:51 | 31.00432 | 27.39326 | 37160 ft | 570 kts | 155° |
| 2026-05-07 10:52 | 30.94482 | 27.42678 | 37159 ft | 570 kts | 149° |
| 2026-05-07 10:52 | 30.86994 | 27.48948 | 37164 ft | 568 kts | 140° |
| 2026-05-07 10:53 | 30.81821 | 27.53736 | 37151 ft | 565 kts | 139° |
| 2026-05-07 10:53 | 30.75714 | 27.59459 | 37148 ft | 564 kts | 139° |
| 2026-05-07 10:54 | 30.69609 | 27.65141 | 37149 ft | 564 kts | 139° |
| 2026-05-07 10:54 | 30.63489 | 27.70797 | 37143 ft | 564 kts | 139° |
| 2026-05-07 10:55 | 30.57318 | 27.76479 | 37140 ft | 564 kts | 139° |
| 2026-05-07 10:55 | 30.51156 | 27.82143 | 37115 ft | 564 kts | 139° |
| 2026-05-07 10:56 | 30.45022 | 27.87775 | 37136 ft | 562 kts | 139° |
| 2026-05-07 10:56 | 30.38909 | 27.93378 | 37135 ft | 562 kts | 139° |
| 2026-05-07 10:57 | 30.32756 | 27.99010 | 37132 ft | 562 kts | 139° |
| 2026-05-07 10:57 | 30.26644 | 28.04595 | 37130 ft | 562 kts | 139° |
| 2026-05-07 10:58 | 30.20506 | 28.10193 | 37124 ft | 560 kts | 139° |
| 2026-05-07 10:58 | 30.14388 | 28.15764 | 37123 ft | 559 kts | 139° |
| 2026-05-07 10:59 | 30.08299 | 28.21301 | 37127 ft | 559 kts | 139° |
| 2026-05-07 10:59 | 30.02203 | 28.26834 | 37120 ft | 559 kts | 139° |
| 2026-05-07 11:00 | 29.96072 | 28.32392 | 37119 ft | 559 kts | 139° |
| 2026-05-07 11:00 | 29.89959 | 28.37923 | 37136 ft | 559 kts | 139° |
| 2026-05-07 11:01 | 29.84489 | 28.44148 | 37118 ft | 549 kts | 125° |
| 2026-05-07 11:01 | 29.79750 | 28.51009 | 37115 ft | 547 kts | 123° |
| 2026-05-07 11:02 | 29.75117 | 28.57982 | 37116 ft | 547 kts | 122° |
| 2026-05-07 11:02 | 29.70501 | 28.64923 | 37116 ft | 547 kts | 123° |
| 2026-05-07 11:03 | 29.65850 | 28.71862 | 37115 ft | 546 kts | 122° |
| 2026-05-07 11:03 | 29.61221 | 28.78746 | 37109 ft | 544 kts | 122° |
| 2026-05-07 11:04 | 29.56600 | 28.85598 | 37103 ft | 544 kts | 122° |
| 2026-05-07 11:04 | 29.51942 | 28.92493 | 37101 ft | 544 kts | 123° |
| 2026-05-07 11:05 | 29.47324 | 28.99320 | 37112 ft | 544 kts | 122° |
| 2026-05-07 11:05 | 29.42618 | 29.06086 | 37103 ft | 548 kts | 128° |
| 2026-05-07 11:06 | 29.36851 | 29.11870 | 37100 ft | 553 kts | 138° |
| 2026-05-07 11:06 | 29.30731 | 29.17236 | 37099 ft | 555 kts | 140° |
| 2026-05-07 11:07 | 29.24564 | 29.22522 | 37099 ft | 555 kts | 140° |
| 2026-05-07 11:07 | 29.18411 | 29.27814 | 37095 ft | 552 kts | 141° |
| 2026-05-07 11:08 | 29.12314 | 29.33080 | 37103 ft | 549 kts | 141° |
| 2026-05-07 11:08 | 29.06145 | 29.38304 | 37103 ft | 549 kts | 142° |
| 2026-05-07 11:09 | 28.99973 | 29.43397 | 37080 ft | 549 kts | 142° |
| 2026-05-07 11:09 | 28.93808 | 29.48485 | 37085 ft | 549 kts | 142° |
| 2026-05-07 11:10 | 28.87611 | 29.53614 | 37104 ft | 549 kts | 142° |
| 2026-05-07 11:10 | 28.81468 | 29.58703 | 37091 ft | 543 kts | 143° |
| 2026-05-07 11:11 | 28.75359 | 29.63755 | 37090 ft | 541 kts | 143° |
| 2026-05-07 11:11 | 28.69237 | 29.68812 | 37090 ft | 542 kts | 143° |
| 2026-05-07 11:12 | 28.63154 | 29.73828 | 37095 ft | 542 kts | 143° |
| 2026-05-07 11:12 | 28.57060 | 29.78845 | 37098 ft | 542 kts | 143° |
| 2026-05-07 11:13 | 28.50930 | 29.83884 | 37097 ft | 542 kts | 144° |
| 2026-05-07 11:13 | 28.44877 | 29.88853 | 37100 ft | 537 kts | 144° |
| 2026-05-07 11:14 | 28.38805 | 29.93830 | 37100 ft | 536 kts | 144° |
| 2026-05-07 11:14 | 28.32768 | 29.98771 | 37100 ft | 536 kts | 144° |
| 2026-05-07 11:15 | 28.26713 | 30.03720 | 37098 ft | 537 kts | 144° |
| 2026-05-07 11:15 | 28.20633 | 30.08683 | 37086 ft | 537 kts | 144° |
| 2026-05-07 11:16 | 28.14582 | 30.13615 | 37098 ft | 537 kts | 145° |
| 2026-05-07 11:16 | 28.08517 | 30.18550 | 37101 ft | 534 kts | 145° |
| 2026-05-07 11:17 | 28.02497 | 30.23443 | 37098 ft | 534 kts | 145° |
| 2026-05-07 11:17 | 27.96466 | 30.28337 | 37099 ft | 534 kts | 145° |
| 2026-05-07 11:18 | 27.90397 | 30.33256 | 37102 ft | 534 kts | 145° |
| 2026-05-07 11:18 | 27.84359 | 30.38143 | 37108 ft | 537 kts | 145° |
| 2026-05-07 11:19 | 27.78266 | 30.43067 | 37098 ft | 535 kts | 145° |
| 2026-05-07 11:19 | 27.72249 | 30.47923 | 37099 ft | 533 kts | 146° |
| 2026-05-07 11:20 | 27.66193 | 30.52804 | 37099 ft | 533 kts | 146° |
| 2026-05-07 11:20 | 27.60181 | 30.57642 | 37098 ft | 533 kts | 146° |
| 2026-05-07 11:21 | 27.54150 | 30.62489 | 37103 ft | 534 kts | 146° |
| 2026-05-07 11:21 | 27.48058 | 30.67378 | 37087 ft | 536 kts | 146° |
| 2026-05-07 11:22 | 27.41991 | 30.72240 | 37104 ft | 536 kts | 146° |
| 2026-05-07 11:22 | 27.35928 | 30.77093 | 37103 ft | 536 kts | 146° |
| 2026-05-07 11:23 | 27.29865 | 30.81938 | 37103 ft | 536 kts | 146° |
| 2026-05-07 11:23 | 27.23763 | 30.86809 | 37084 ft | 536 kts | 146° |
| 2026-05-07 11:24 | 27.17703 | 30.91639 | 37104 ft | 539 kts | 146° |
| 2026-05-07 11:24 | 27.11550 | 30.96537 | 37137 ft | 539 kts | 146° |
| 2026-05-07 11:25 | 27.05509 | 31.01371 | 37123 ft | 536 kts | 144° |
| 2026-05-07 11:25 | 27.00196 | 31.07272 | 37131 ft | 536 kts | 131° |
| 2026-05-07 11:26 | 26.95444 | 31.13688 | 37118 ft | 537 kts | 129° |
| 2026-05-07 11:26 | 26.90744 | 31.20231 | 37099 ft | 537 kts | 129° |
| 2026-05-07 11:27 | 26.86055 | 31.26733 | 37089 ft | 537 kts | 130° |
| 2026-05-07 11:27 | 26.81373 | 31.33177 | 37048 ft | 534 kts | 130° |
| 2026-05-07 11:28 | 26.76658 | 31.39639 | 37049 ft | 534 kts | 130° |
| 2026-05-07 11:28 | 26.71970 | 31.46053 | 37030 ft | 534 kts | 130° |
| 2026-05-07 11:29 | 26.67279 | 31.52464 | 37004 ft | 534 kts | 130° |
| 2026-05-07 11:29 | 26.62564 | 31.58900 | 36992 ft | 532 kts | 130° |
| 2026-05-07 11:30 | 26.57890 | 31.65271 | 36976 ft | 532 kts | 130° |
| 2026-05-07 11:30 | 26.53188 | 31.71669 | 36974 ft | 532 kts | 130° |
| 2026-05-07 11:31 | 26.48503 | 31.78036 | 36964 ft | 533 kts | 130° |
| 2026-05-07 11:31 | 26.43782 | 31.84444 | 36963 ft | 533 kts | 131° |
| 2026-05-07 11:32 | 26.36723 | 31.94008 | 36949 ft | 532 kts | 131° |
| 2026-05-07 11:33 | 26.32033 | 32.00350 | 36948 ft | 532 kts | 131° |
| 2026-05-07 11:33 | 26.27342 | 32.06684 | 36950 ft | 532 kts | 131° |
| 2026-05-07 11:34 | 26.22630 | 32.13041 | 36950 ft | 529 kts | 131° |
| 2026-05-07 11:34 | 26.17960 | 32.19331 | 36949 ft | 528 kts | 131° |
| 2026-05-07 11:35 | 26.13286 | 32.25616 | 36948 ft | 528 kts | 131° |
| 2026-05-07 11:35 | 26.08570 | 32.31949 | 36948 ft | 530 kts | 132° |
| 2026-05-07 11:36 | 26.03865 | 32.38256 | 36946 ft | 531 kts | 133° |
| 2026-05-07 11:36 | 25.99163 | 32.44554 | 36947 ft | 530 kts | 133° |
| 2026-05-07 11:37 | 25.94442 | 32.50869 | 36949 ft | 529 kts | 133° |
| 2026-05-07 11:37 | 25.89752 | 32.57132 | 36951 ft | 529 kts | 133° |
| 2026-05-07 11:38 | 25.85025 | 32.63437 | 36957 ft | 530 kts | 133° |
| 2026-05-07 11:38 | 25.80305 | 32.69725 | 36962 ft | 528 kts | 133° |
| 2026-05-07 11:39 | 25.75635 | 32.75989 | 36959 ft | 529 kts | 130° |
| 2026-05-07 11:39 | 25.71448 | 32.82684 | 36938 ft | 532 kts | 127° |
| 2026-05-07 11:40 | 25.67329 | 32.89570 | 36927 ft | 535 kts | 127° |
| 2026-05-07 11:40 | 25.63251 | 32.96433 | 36944 ft | 534 kts | 127° |
| 2026-05-07 11:41 | 25.59831 | 33.02169 | 36938 ft | 534 kts | 127° |
| 2026-05-07 11:41 | 25.55718 | 33.09044 | 36947 ft | 534 kts | 127° |
| 2026-05-07 11:42 | 25.51614 | 33.15884 | 36936 ft | 534 kts | 127° |
| 2026-05-07 11:42 | 25.47512 | 33.22712 | 36943 ft | 532 kts | 128° |
| 2026-05-07 11:43 | 25.43423 | 33.29510 | 36942 ft | 532 kts | 128° |
| 2026-05-07 11:43 | 25.39304 | 33.36345 | 36944 ft | 532 kts | 128° |
| 2026-05-07 11:44 | 25.35218 | 33.43118 | 36943 ft | 532 kts | 128° |
| 2026-05-07 11:44 | 25.31122 | 33.49897 | 36940 ft | 532 kts | 128° |
| 2026-05-07 11:45 | 25.27000 | 33.56719 | 36916 ft | 532 kts | 128° |
| 2026-05-07 11:45 | 25.22875 | 33.63525 | 36948 ft | 535 kts | 128° |
| 2026-05-07 11:46 | 25.18718 | 33.70377 | 36937 ft | 535 kts | 129° |
| 2026-05-07 11:46 | 25.14591 | 33.77175 | 36945 ft | 532 kts | 129° |
| 2026-05-07 11:47 | 25.10474 | 33.83945 | 36938 ft | 532 kts | 129° |
| 2026-05-07 11:47 | 25.06333 | 33.90742 | 36939 ft | 532 kts | 129° |
| 2026-05-07 11:48 | 25.02210 | 33.97501 | 36928 ft | 531 kts | 129° |
| 2026-05-07 11:48 | 24.98097 | 34.04237 | 36935 ft | 529 kts | 129° |
| 2026-05-07 11:49 | 24.93999 | 34.10935 | 36936 ft | 529 kts | 129° |
| 2026-05-07 11:49 | 24.89868 | 34.17677 | 36927 ft | 529 kts | 129° |
| 2026-05-07 11:50 | 24.85759 | 34.24376 | 36922 ft | 528 kts | 130° |
| 2026-05-07 11:50 | 24.81666 | 34.31043 | 36905 ft | 526 kts | 130° |
| 2026-05-07 11:51 | 24.77548 | 34.37736 | 36915 ft | 527 kts | 130° |
| 2026-05-07 11:51 | 24.73439 | 34.44404 | 36913 ft | 527 kts | 130° |
| 2026-05-07 11:52 | 24.69335 | 34.51059 | 36913 ft | 526 kts | 130° |
| 2026-05-07 11:52 | 24.65248 | 34.57679 | 36916 ft | 524 kts | 130° |
| 2026-05-07 11:53 | 24.61135 | 34.64326 | 36913 ft | 524 kts | 130° |
| 2026-05-07 11:53 | 24.57051 | 34.70918 | 36912 ft | 524 kts | 131° |
| 2026-05-07 11:54 | 24.52938 | 34.77552 | 36903 ft | 524 kts | 131° |
| 2026-05-07 11:54 | 24.48849 | 34.84138 | 36917 ft | 523 kts | 131° |
| 2026-05-07 11:55 | 24.44736 | 34.90751 | 36914 ft | 523 kts | 131° |
| 2026-05-07 11:55 | 24.40645 | 34.97324 | 36918 ft | 523 kts | 131° |
| 2026-05-07 11:56 | 24.36548 | 35.03894 | 36898 ft | 523 kts | 132° |
| 2026-05-07 11:56 | 24.32434 | 35.10478 | 36915 ft | 524 kts | 132° |
| 2026-05-07 11:57 | 24.28308 | 35.17075 | 36913 ft | 524 kts | 132° |
| 2026-05-07 11:57 | 24.24196 | 35.23644 | 36914 ft | 524 kts | 132° |
| 2026-05-07 11:58 | 24.20061 | 35.30243 | 36913 ft | 523 kts | 133° |
| 2026-05-07 11:58 | 24.15946 | 35.36799 | 36911 ft | 523 kts | 133° |
| 2026-05-07 11:59 | 24.11823 | 35.43355 | 36913 ft | 523 kts | 133° |
| 2026-05-07 11:59 | 24.07710 | 35.49891 | 36902 ft | 523 kts | 133° |
| 2026-05-07 12:00 | 24.03573 | 35.56458 | 36903 ft | 521 kts | 133° |
| 2026-05-07 12:00 | 23.99470 | 35.62960 | 36906 ft | 520 kts | 133° |
| 2026-05-07 12:01 | 23.95372 | 35.69450 | 36902 ft | 520 kts | 133° |
| 2026-05-07 12:01 | 23.91233 | 35.75987 | 36893 ft | 520 kts | 133° |
| 2026-05-07 12:02 | 23.87131 | 35.82449 | 36899 ft | 519 kts | 133° |
| 2026-05-07 12:02 | 23.83026 | 35.88909 | 36899 ft | 519 kts | 133° |
| 2026-05-07 12:03 | 23.78893 | 35.95408 | 36899 ft | 519 kts | 133° |
| 2026-05-07 12:03 | 23.74789 | 36.01854 | 36898 ft | 519 kts | 133° |
| 2026-05-07 12:04 | 23.70649 | 36.08348 | 36891 ft | 519 kts | 133° |
| 2026-05-07 12:04 | 23.66545 | 36.14778 | 36896 ft | 519 kts | 133° |
| 2026-05-07 12:05 | 23.62408 | 36.21252 | 36895 ft | 519 kts | 133° |
| 2026-05-07 12:05 | 23.58294 | 36.27680 | 36887 ft | 519 kts | 133° |
| 2026-05-07 12:06 | 23.54150 | 36.34149 | 36891 ft | 518 kts | 134° |
| 2026-05-07 12:06 | 23.50035 | 36.40564 | 36891 ft | 518 kts | 134° |
| 2026-05-07 12:07 | 23.45911 | 36.46982 | 36886 ft | 518 kts | 134° |
| 2026-05-07 12:07 | 23.41792 | 36.53387 | 36887 ft | 517 kts | 134° |
| 2026-05-07 12:08 | 23.37649 | 36.59822 | 36895 ft | 516 kts | 134° |
| 2026-05-07 12:08 | 23.33546 | 36.66184 | 36901 ft | 515 kts | 134° |
| 2026-05-07 12:09 | 23.29418 | 36.72577 | 36883 ft | 515 kts | 134° |
| 2026-05-07 12:09 | 23.25311 | 36.78933 | 36886 ft | 514 kts | 134° |
| 2026-05-07 12:10 | 23.21208 | 36.85276 | 36889 ft | 512 kts | 134° |
| 2026-05-07 12:10 | 23.17120 | 36.91583 | 36890 ft | 512 kts | 134° |
| 2026-05-07 12:11 | 23.13005 | 36.97922 | 36887 ft | 512 kts | 134° |
| 2026-05-07 12:11 | 23.08937 | 37.04192 | 36882 ft | 506 kts | 134° |
| 2026-05-07 12:12 | 23.04894 | 37.10415 | 36882 ft | 504 kts | 134° |
| 2026-05-07 12:12 | 23.00850 | 37.16618 | 36876 ft | 503 kts | 135° |
| 2026-05-07 12:13 | 22.96797 | 37.22805 | 36880 ft | 503 kts | 135° |
| 2026-05-07 12:13 | 22.92752 | 37.28968 | 36878 ft | 502 kts | 135° |
| 2026-05-07 12:14 | 22.88709 | 37.35122 | 36873 ft | 501 kts | 135° |
| 2026-05-07 12:14 | 22.84648 | 37.41300 | 36873 ft | 501 kts | 135° |
| 2026-05-07 12:15 | 22.80613 | 37.47433 | 36874 ft | 501 kts | 135° |
| 2026-05-07 12:15 | 22.76559 | 37.53589 | 36873 ft | 501 kts | 136° |
| 2026-05-07 12:16 | 22.72520 | 37.59717 | 36871 ft | 501 kts | 136° |
| 2026-05-07 12:16 | 22.68483 | 37.65849 | 36870 ft | 501 kts | 135° |
| 2026-05-07 12:17 | 22.64445 | 37.72015 | 36845 ft | 501 kts | 135° |
| 2026-05-07 12:17 | 22.60421 | 37.78154 | 36873 ft | 500 kts | 136° |
| 2026-05-07 12:18 | 22.56399 | 37.84279 | 36866 ft | 499 kts | 136° |
| 2026-05-07 12:18 | 22.52374 | 37.90400 | 36867 ft | 499 kts | 136° |
| 2026-05-07 12:19 | 22.48341 | 37.96524 | 36854 ft | 499 kts | 136° |
| 2026-05-07 12:19 | 22.44314 | 38.02634 | 36861 ft | 498 kts | 136° |
| 2026-05-07 12:20 | 22.40292 | 38.08730 | 36853 ft | 498 kts | 136° |
| 2026-05-07 12:20 | 22.36276 | 38.14809 | 36855 ft | 498 kts | 136° |
| 2026-05-07 12:21 | 22.32261 | 38.20878 | 36833 ft | 498 kts | 135° |
| 2026-05-07 12:21 | 22.28243 | 38.26952 | 36845 ft | 497 kts | 135° |
| 2026-05-07 12:22 | 22.24228 | 38.33011 | 36845 ft | 496 kts | 135° |
| 2026-05-07 12:22 | 22.20206 | 38.39065 | 36856 ft | 496 kts | 135° |
| 2026-05-07 12:23 | 22.16189 | 38.45106 | 36843 ft | 496 kts | 135° |
| 2026-05-07 12:23 | 22.12162 | 38.51158 | 36844 ft | 496 kts | 135° |
| 2026-05-07 12:24 | 22.08139 | 38.57199 | 36844 ft | 495 kts | 135° |
| 2026-05-07 12:24 | 22.04121 | 38.63225 | 36847 ft | 495 kts | 135° |
| 2026-05-07 12:25 | 22.00109 | 38.69235 | 36836 ft | 494 kts | 135° |
| 2026-05-07 12:25 | 21.96099 | 38.75238 | 36841 ft | 493 kts | 135° |
| 2026-05-07 12:26 | 21.92086 | 38.81236 | 36841 ft | 493 kts | 135° |
| 2026-05-07 12:26 | 21.88075 | 38.87224 | 36839 ft | 493 kts | 135° |
| 2026-05-07 12:27 | 21.84066 | 38.93201 | 36838 ft | 493 kts | 135° |
| 2026-05-07 12:27 | 21.80030 | 38.99206 | 36906 ft | 498 kts | 135° |
| 2026-05-07 12:27 | 21.77992 | 39.02235 | 37113 ft | 496 kts | 135° |
| 2026-05-07 12:28 | 21.75792 | 39.05069 | 37352 ft | 485 kts | 143° |
| 2026-05-07 12:28 | 21.73354 | 39.07450 | 37588 ft | 472 kts | 152° |
| 2026-05-07 12:28 | 21.70638 | 39.09391 | 37705 ft | 461 kts | 160° |
| 2026-05-07 12:29 | 21.64769 | 39.11690 | 37831 ft | 443 kts | 176° |
| 2026-05-07 12:29 | 21.58745 | 39.12094 | 37831 ft | 431 kts | 186° |
| 2026-05-07 12:30 | 21.53725 | 39.11964 | 37821 ft | 431 kts | 187° |
| 2026-05-07 12:30 | 21.47771 | 39.11748 | 37835 ft | 431 kts | 187° |
| 2026-05-07 12:31 | 21.41750 | 39.11560 | 37830 ft | 432 kts | 187° |
| 2026-05-07 12:31 | 21.35751 | 39.11400 | 37835 ft | 433 kts | 187° |
| 2026-05-07 12:32 | 21.29700 | 39.11248 | 37835 ft | 433 kts | 187° |
| 2026-05-07 12:32 | 21.23687 | 39.11098 | 37835 ft | 433 kts | 187° |
| 2026-05-07 12:33 | 21.14655 | 39.10868 | 37833 ft | 435 kts | 187° |
| 2026-05-07 12:33 | 21.08620 | 39.10715 | 37835 ft | 435 kts | 187° |
| 2026-05-07 12:34 | 21.02562 | 39.10561 | 37834 ft | 435 kts | 187° |
| 2026-05-07 12:34 | 20.96527 | 39.10409 | 37835 ft | 435 kts | 187° |
| 2026-05-07 12:35 | 20.90453 | 39.10255 | 37826 ft | 436 kts | 186° |
| 2026-05-07 12:35 | 20.84370 | 39.10100 | 37828 ft | 436 kts | 186° |
| 2026-05-07 12:36 | 20.78314 | 39.09947 | 37826 ft | 436 kts | 186° |
| 2026-05-07 12:36 | 20.72254 | 39.09795 | 37826 ft | 436 kts | 186° |
| 2026-05-07 12:37 | 20.66158 | 39.09646 | 37816 ft | 437 kts | 186° |
| 2026-05-07 12:37 | 20.60082 | 39.09490 | 37825 ft | 438 kts | 186° |
| 2026-05-07 12:38 | 20.54019 | 39.09335 | 37826 ft | 438 kts | 186° |
| 2026-05-07 12:38 | 20.47904 | 39.09181 | 37822 ft | 438 kts | 186° |
| 2026-05-07 12:39 | 20.41826 | 39.09028 | 37812 ft | 438 kts | 186° |
| 2026-05-07 12:39 | 20.35706 | 39.08874 | 37832 ft | 439 kts | 186° |
| 2026-05-07 12:40 | 20.29608 | 39.08721 | 37832 ft | 439 kts | 186° |
| 2026-05-07 12:40 | 20.23507 | 39.08568 | 37816 ft | 439 kts | 186° |
| 2026-05-07 12:41 | 20.17375 | 39.08415 | 37807 ft | 439 kts | 186° |
| 2026-05-07 12:41 | 20.11272 | 39.08261 | 37824 ft | 443 kts | 186° |
| 2026-05-07 12:42 | 20.05098 | 39.08105 | 37822 ft | 444 kts | 186° |
| 2026-05-07 12:42 | 19.98903 | 39.07952 | 37820 ft | 444 kts | 186° |
| 2026-05-07 12:43 | 19.92768 | 39.07799 | 37823 ft | 444 kts | 186° |
| 2026-05-07 12:43 | 19.86559 | 39.07644 | 37824 ft | 446 kts | 186° |
| 2026-05-07 12:44 | 19.80337 | 39.07487 | 37824 ft | 449 kts | 186° |
| 2026-05-07 12:44 | 19.74114 | 39.07332 | 37824 ft | 448 kts | 186° |
| 2026-05-07 12:45 | 19.67891 | 39.07178 | 37821 ft | 448 kts | 186° |
| 2026-05-07 12:45 | 19.61631 | 39.07023 | 37825 ft | 448 kts | 186° |
| 2026-05-07 12:46 | 19.55417 | 39.06868 | 37823 ft | 448 kts | 186° |
| 2026-05-07 12:46 | 19.49143 | 39.06712 | 37825 ft | 449 kts | 186° |
| 2026-05-07 12:47 | 19.42905 | 39.06557 | 37819 ft | 449 kts | 186° |
| 2026-05-07 12:47 | 19.36683 | 39.06403 | 37822 ft | 449 kts | 186° |
| 2026-05-07 12:48 | 19.30413 | 39.06246 | 37821 ft | 452 kts | 186° |
| 2026-05-07 12:48 | 19.24138 | 39.06091 | 37821 ft | 452 kts | 186° |
| 2026-05-07 12:49 | 19.17814 | 39.05935 | 37825 ft | 452 kts | 186° |
| 2026-05-07 12:49 | 19.11559 | 39.05781 | 37820 ft | 452 kts | 186° |
| 2026-05-07 12:50 | 19.05277 | 39.05483 | 37820 ft | 452 kts | 187° |
| 2026-05-07 12:50 | 18.99007 | 39.05086 | 37820 ft | 453 kts | 187° |
| 2026-05-07 12:51 | 18.92684 | 39.04703 | 37821 ft | 453 kts | 187° |
| 2026-05-07 12:51 | 18.86422 | 39.04348 | 37800 ft | 453 kts | 187° |
| 2026-05-07 12:52 | 18.80092 | 39.03997 | 37817 ft | 455 kts | 187° |
| 2026-05-07 12:52 | 18.73784 | 39.03648 | 37820 ft | 455 kts | 187° |
| 2026-05-07 12:53 | 18.67461 | 39.03299 | 37819 ft | 455 kts | 187° |
| 2026-05-07 12:53 | 18.61159 | 39.02950 | 37818 ft | 455 kts | 187° |
| 2026-05-07 12:54 | 18.54803 | 39.02598 | 37819 ft | 457 kts | 187° |
| 2026-05-07 12:54 | 18.48444 | 39.02246 | 37817 ft | 457 kts | 187° |
| 2026-05-07 12:55 | 18.42097 | 39.01895 | 37818 ft | 457 kts | 187° |
| 2026-05-07 12:55 | 18.35759 | 39.01545 | 37818 ft | 457 kts | 187° |
| 2026-05-07 12:56 | 18.29389 | 39.01193 | 37815 ft | 459 kts | 187° |
| 2026-05-07 12:56 | 18.23023 | 39.00841 | 37815 ft | 460 kts | 187° |
| 2026-05-07 12:57 | 18.16634 | 39.00490 | 37814 ft | 460 kts | 187° |
| 2026-05-07 12:57 | 18.10208 | 39.00216 | 37816 ft | 461 kts | 186° |
| 2026-05-07 12:58 | 18.03807 | 39.00009 | 37811 ft | 461 kts | 186° |
| 2026-05-07 12:58 | 17.97404 | 38.99796 | 37816 ft | 462 kts | 186° |
| 2026-05-07 12:59 | 17.90983 | 38.99570 | 37816 ft | 462 kts | 186° |
| 2026-05-07 12:59 | 17.84526 | 38.99338 | 37816 ft | 462 kts | 186° |
| 2026-05-07 13:00 | 17.78109 | 38.99106 | 37816 ft | 462 kts | 186° |
| 2026-05-07 13:00 | 17.71690 | 38.98875 | 37818 ft | 463 kts | 186° |
| 2026-05-07 13:01 | 17.65264 | 38.98644 | 37815 ft | 463 kts | 186° |
| 2026-05-07 13:01 | 17.58840 | 38.98414 | 37815 ft | 463 kts | 186° |
| 2026-05-07 13:02 | 17.52391 | 38.98182 | 37810 ft | 463 kts | 185° |
| 2026-05-07 13:02 | 17.45968 | 38.97952 | 37818 ft | 463 kts | 185° |
| 2026-05-07 13:03 | 17.39513 | 38.97724 | 37818 ft | 463 kts | 185° |
| 2026-05-07 13:03 | 17.33046 | 38.97488 | 37818 ft | 463 kts | 186° |
| 2026-05-07 13:04 | 17.26628 | 38.97249 | 37813 ft | 464 kts | 185° |
| 2026-05-07 13:04 | 17.20194 | 38.97012 | 37820 ft | 464 kts | 185° |
| 2026-05-07 13:05 | 17.13716 | 38.96775 | 37821 ft | 465 kts | 185° |
| 2026-05-07 13:05 | 17.07257 | 38.96540 | 37821 ft | 465 kts | 185° |
| 2026-05-07 13:06 | 17.00765 | 38.96304 | 37821 ft | 465 kts | 185° |
| 2026-05-07 13:06 | 16.94315 | 38.96069 | 37827 ft | 465 kts | 185° |
| 2026-05-07 13:07 | 16.87863 | 38.95834 | 37825 ft | 465 kts | 185° |
| 2026-05-07 13:07 | 16.81382 | 38.95599 | 37828 ft | 465 kts | 185° |
| 2026-05-07 13:08 | 16.74930 | 38.95364 | 37830 ft | 465 kts | 185° |
| 2026-05-07 13:08 | 16.68465 | 38.95128 | 37831 ft | 467 kts | 185° |
| 2026-05-07 13:09 | 16.61929 | 38.94890 | 37834 ft | 469 kts | 185° |
| 2026-05-07 13:09 | 16.55434 | 38.94655 | 37835 ft | 469 kts | 185° |
| 2026-05-07 13:10 | 16.48902 | 38.94419 | 37835 ft | 469 kts | 185° |
| 2026-05-07 13:10 | 16.42366 | 38.94183 | 37833 ft | 470 kts | 185° |
| 2026-05-07 13:11 | 16.35862 | 38.93947 | 37838 ft | 470 kts | 185° |
| 2026-05-07 13:11 | 16.29303 | 38.93710 | 37857 ft | 470 kts | 185° |
| 2026-05-07 13:12 | 16.22767 | 38.93474 | 37857 ft | 470 kts | 185° |
| 2026-05-07 13:12 | 16.16203 | 38.93243 | 37873 ft | 471 kts | 185° |
| 2026-05-07 13:13 | 16.09673 | 38.93004 | 37872 ft | 471 kts | 185° |
| 2026-05-07 13:13 | 16.03139 | 38.92765 | 37870 ft | 471 kts | 185° |
| 2026-05-07 13:14 | 15.96558 | 38.92528 | 37894 ft | 471 kts | 185° |
| 2026-05-07 13:14 | 15.90020 | 38.92292 | 37886 ft | 472 kts | 185° |
| 2026-05-07 13:15 | 15.83448 | 38.92055 | 37897 ft | 472 kts | 185° |
| 2026-05-07 13:15 | 15.76864 | 38.91818 | 37899 ft | 472 kts | 185° |
| 2026-05-07 13:16 | 15.70323 | 38.91583 | 37908 ft | 473 kts | 185° |
| 2026-05-07 13:16 | 15.63729 | 38.91347 | 37914 ft | 472 kts | 185° |
| 2026-05-07 13:17 | 15.57167 | 38.91111 | 37920 ft | 475 kts | 185° |
| 2026-05-07 13:17 | 15.50551 | 38.90873 | 37939 ft | 476 kts | 185° |
| 2026-05-07 13:18 | 15.45042 | 38.90676 | 37921 ft | 476 kts | 185° |
| 2026-05-07 13:18 | 15.37332 | 38.90400 | 37935 ft | 475 kts | 185° |
| 2026-05-07 13:19 | 15.31817 | 38.90203 | 37944 ft | 476 kts | 185° |
| 2026-05-07 13:19 | 15.25171 | 38.89998 | 37943 ft | 477 kts | 184° |
| 2026-05-07 13:20 | 15.18557 | 38.89999 | 37934 ft | 478 kts | 182° |
| 2026-05-07 13:20 | 15.11887 | 38.90042 | 37932 ft | 478 kts | 183° |
| 2026-05-07 13:21 | 15.05259 | 38.90057 | 37931 ft | 477 kts | 183° |
| 2026-05-07 13:21 | 14.98600 | 38.90054 | 37912 ft | 477 kts | 183° |
| 2026-05-07 13:22 | 14.91995 | 38.90045 | 37916 ft | 476 kts | 183° |
| 2026-05-07 13:22 | 14.85388 | 38.90037 | 37900 ft | 476 kts | 183° |
| 2026-05-07 13:23 | 14.78722 | 38.90029 | 37899 ft | 477 kts | 183° |
| 2026-05-07 13:23 | 14.72091 | 38.90022 | 37889 ft | 478 kts | 183° |
| 2026-05-07 13:24 | 14.65399 | 38.90015 | 37884 ft | 479 kts | 183° |
| 2026-05-07 13:24 | 14.58741 | 38.90009 | 37881 ft | 479 kts | 183° |
| 2026-05-07 13:25 | 14.52126 | 38.90606 | 37878 ft | 484 kts | 170° |
| 2026-05-07 13:25 | 14.45813 | 38.93214 | 37885 ft | 494 kts | 151° |
| 2026-05-07 13:26 | 14.40135 | 38.97209 | 37896 ft | 498 kts | 147° |
| 2026-05-07 13:26 | 14.34543 | 39.01457 | 37898 ft | 498 kts | 147° |
| 2026-05-07 13:27 | 14.28983 | 39.05679 | 37909 ft | 498 kts | 147° |
| 2026-05-07 13:27 | 14.23379 | 39.09885 | 37926 ft | 498 kts | 147° |
| 2026-05-07 13:28 | 14.17751 | 39.14081 | 37939 ft | 498 kts | 147° |
| 2026-05-07 13:28 | 14.12134 | 39.18263 | 37939 ft | 499 kts | 147° |
| 2026-05-07 13:29 | 14.06513 | 39.22448 | 37946 ft | 500 kts | 147° |
| 2026-05-07 13:29 | 14.00865 | 39.26651 | 37953 ft | 499 kts | 147° |
| 2026-05-07 13:30 | 13.95253 | 39.30826 | 37970 ft | 499 kts | 147° |
| 2026-05-07 13:30 | 13.89627 | 39.35009 | 37963 ft | 499 kts | 147° |
| 2026-05-07 13:31 | 13.84002 | 39.39186 | 37963 ft | 500 kts | 147° |
| 2026-05-07 13:31 | 13.78377 | 39.43363 | 37973 ft | 500 kts | 147° |
| 2026-05-07 13:32 | 13.72717 | 39.47564 | 37968 ft | 499 kts | 147° |
| 2026-05-07 13:32 | 13.67103 | 39.51727 | 37977 ft | 499 kts | 147° |
| 2026-05-07 13:33 | 13.61449 | 39.55917 | 37976 ft | 500 kts | 147° |
| 2026-05-07 13:33 | 13.55820 | 39.60086 | 37970 ft | 499 kts | 147° |
| 2026-05-07 13:34 | 13.47401 | 39.66318 | 37963 ft | 497 kts | 147° |
| 2026-05-07 13:35 | 13.41794 | 39.70466 | 37940 ft | 497 kts | 147° |
| 2026-05-07 13:35 | 13.36184 | 39.74611 | 37938 ft | 497 kts | 147° |
| 2026-05-07 13:36 | 13.30562 | 39.78764 | 37911 ft | 497 kts | 147° |
| 2026-05-07 13:36 | 13.24931 | 39.82921 | 37906 ft | 497 kts | 147° |
| 2026-05-07 13:37 | 13.19322 | 39.87060 | 37878 ft | 498 kts | 147° |
| 2026-05-07 13:37 | 13.13716 | 39.91194 | 37879 ft | 498 kts | 147° |
| 2026-05-07 13:38 | 13.08105 | 39.95329 | 37836 ft | 498 kts | 147° |
| 2026-05-07 13:38 | 13.02482 | 39.99470 | 37837 ft | 498 kts | 147° |
| 2026-05-07 13:39 | 12.96842 | 40.03622 | 37807 ft | 498 kts | 147° |
| 2026-05-07 13:39 | 12.91224 | 40.07756 | 37809 ft | 498 kts | 147° |
| 2026-05-07 13:40 | 12.85578 | 40.11907 | 37805 ft | 498 kts | 146° |
| 2026-05-07 13:40 | 12.79959 | 40.16037 | 37780 ft | 498 kts | 147° |
| 2026-05-07 13:41 | 12.74311 | 40.20186 | 37776 ft | 498 kts | 147° |
| 2026-05-07 13:41 | 12.68704 | 40.24301 | 37755 ft | 498 kts | 147° |
| 2026-05-07 13:42 | 12.63072 | 40.28434 | 37754 ft | 498 kts | 147° |
| 2026-05-07 13:42 | 12.57433 | 40.32568 | 37743 ft | 498 kts | 146° |
| 2026-05-07 13:43 | 12.51818 | 40.36683 | 37741 ft | 498 kts | 146° |
| 2026-05-07 13:43 | 12.46136 | 40.40761 | 37741 ft | 496 kts | 151° |
| 2026-05-07 13:44 | 12.40086 | 40.44112 | 37741 ft | 495 kts | 155° |
| 2026-05-07 13:44 | 12.33955 | 40.47281 | 37743 ft | 495 kts | 155° |
| 2026-05-07 13:45 | 12.27809 | 40.50417 | 37745 ft | 495 kts | 155° |
| 2026-05-07 13:45 | 12.21636 | 40.53575 | 37745 ft | 495 kts | 155° |
| 2026-05-07 13:46 | 12.15465 | 40.56742 | 37738 ft | 495 kts | 155° |
| 2026-05-07 13:46 | 12.09323 | 40.59896 | 37737 ft | 495 kts | 155° |
| 2026-05-07 13:47 | 12.03183 | 40.63048 | 37742 ft | 495 kts | 155° |
| 2026-05-07 13:47 | 11.97006 | 40.66216 | 37737 ft | 495 kts | 155° |
| 2026-05-07 13:48 | 11.90850 | 40.69371 | 37733 ft | 495 kts | 155° |
| 2026-05-07 13:48 | 11.84704 | 40.72520 | 37732 ft | 496 kts | 155° |
| 2026-05-07 13:49 | 11.78515 | 40.75689 | 37733 ft | 495 kts | 155° |
| 2026-05-07 13:49 | 11.72361 | 40.78839 | 37732 ft | 495 kts | 155° |
| 2026-05-07 13:50 | 11.66209 | 40.81986 | 37730 ft | 496 kts | 155° |
| 2026-05-07 13:50 | 11.60070 | 40.85125 | 37733 ft | 496 kts | 155° |
| 2026-05-07 13:51 | 11.53886 | 40.88285 | 37729 ft | 496 kts | 155° |
| 2026-05-07 13:51 | 11.47733 | 40.91429 | 37727 ft | 496 kts | 155° |
| 2026-05-07 13:52 | 11.41586 | 40.94567 | 37730 ft | 496 kts | 155° |
| 2026-05-07 13:52 | 11.35386 | 40.97729 | 37724 ft | 496 kts | 155° |
| 2026-05-07 13:53 | 11.29228 | 41.00870 | 37723 ft | 496 kts | 155° |
| 2026-05-07 13:53 | 11.23044 | 41.04023 | 37724 ft | 496 kts | 155° |
| 2026-05-07 13:54 | 11.16883 | 41.07163 | 37724 ft | 496 kts | 155° |
| 2026-05-07 13:54 | 11.10698 | 41.10313 | 37730 ft | 496 kts | 155° |
| 2026-05-07 13:55 | 11.04532 | 41.13452 | 37726 ft | 496 kts | 155° |
| 2026-05-07 13:55 | 10.98353 | 41.16596 | 37730 ft | 497 kts | 155° |
| 2026-05-07 13:56 | 10.92191 | 41.19731 | 37733 ft | 497 kts | 155° |
| 2026-05-07 13:56 | 10.85993 | 41.22882 | 37733 ft | 497 kts | 155° |
| 2026-05-07 13:57 | 10.79955 | 41.25950 | 37734 ft | 497 kts | 155° |
| 2026-05-07 13:57 | 10.73757 | 41.29096 | 37739 ft | 497 kts | 155° |
| 2026-05-07 13:58 | 10.67550 | 41.32248 | 37735 ft | 497 kts | 155° |
| 2026-05-07 13:58 | 10.61382 | 41.35379 | 37739 ft | 498 kts | 155° |
| 2026-05-07 13:59 | 10.55198 | 41.38514 | 37740 ft | 498 kts | 155° |
| 2026-05-07 13:59 | 10.48972 | 41.41670 | 37741 ft | 498 kts | 155° |
| 2026-05-07 14:00 | 10.42796 | 41.44801 | 37739 ft | 497 kts | 155° |
| 2026-05-07 14:00 | 10.36578 | 41.47947 | 37741 ft | 497 kts | 155° |
| 2026-05-07 14:01 | 10.30408 | 41.51074 | 37739 ft | 497 kts | 155° |
| 2026-05-07 14:01 | 10.24235 | 41.54199 | 37738 ft | 497 kts | 155° |
| 2026-05-07 14:02 | 10.18028 | 41.57334 | 37736 ft | 497 kts | 154° |
| 2026-05-07 14:02 | 10.11861 | 41.60453 | 37739 ft | 496 kts | 154° |
| 2026-05-07 14:03 | 10.05698 | 41.63568 | 37744 ft | 496 kts | 154° |
| 2026-05-07 14:03 | 9.99538 | 41.66681 | 37744 ft | 496 kts | 154° |
| 2026-05-07 14:04 | 9.93350 | 41.69808 | 37756 ft | 495 kts | 155° |
| 2026-05-07 14:04 | 9.87200 | 41.72911 | 37758 ft | 495 kts | 154° |
| 2026-05-07 14:05 | 9.81007 | 41.76033 | 37789 ft | 495 kts | 154° |
| 2026-05-07 14:05 | 9.74865 | 41.79132 | 37794 ft | 494 kts | 154° |
| 2026-05-07 14:06 | 9.68736 | 41.82223 | 37840 ft | 493 kts | 154° |
| 2026-05-07 14:06 | 9.62612 | 41.85301 | 37838 ft | 492 kts | 155° |
| 2026-05-07 14:07 | 9.56388 | 41.88193 | 37894 ft | 492 kts | 156° |
| 2026-05-07 14:07 | 9.51167 | 41.90536 | 37891 ft | 492 kts | 156° |
| 2026-05-07 14:08 | 9.43887 | 41.93834 | 37917 ft | 491 kts | 156° |
| 2026-05-07 14:08 | 9.38693 | 41.96210 | 37924 ft | 492 kts | 156° |
| 2026-05-07 14:09 | 9.32461 | 41.99070 | 37935 ft | 492 kts | 156° |
| 2026-05-07 14:09 | 9.26201 | 42.01943 | 37938 ft | 493 kts | 156° |
| 2026-05-07 14:10 | 9.19937 | 42.04816 | 37923 ft | 493 kts | 156° |
| 2026-05-07 14:10 | 9.13706 | 42.07670 | 37929 ft | 493 kts | 156° |
| 2026-05-07 14:11 | 9.07441 | 42.10540 | 37920 ft | 493 kts | 156° |
| 2026-05-07 14:11 | 9.01208 | 42.13395 | 37908 ft | 493 kts | 156° |
| 2026-05-07 14:12 | 8.94954 | 42.16257 | 37898 ft | 494 kts | 156° |
| 2026-05-07 14:12 | 8.88703 | 42.19116 | 37900 ft | 495 kts | 156° |
| 2026-05-07 14:13 | 8.82410 | 42.21994 | 37895 ft | 495 kts | 156° |
| 2026-05-07 14:13 | 8.76133 | 42.24864 | 37897 ft | 496 kts | 156° |
| 2026-05-07 14:14 | 8.69829 | 42.27745 | 37889 ft | 496 kts | 156° |
| 2026-05-07 14:14 | 8.63557 | 42.30611 | 37891 ft | 496 kts | 156° |
| 2026-05-07 14:15 | 8.57287 | 42.33474 | 37889 ft | 497 kts | 156° |
| 2026-05-07 14:15 | 8.50973 | 42.36356 | 37878 ft | 497 kts | 156° |
| 2026-05-07 14:16 | 8.44693 | 42.39222 | 37903 ft | 497 kts | 156° |
| 2026-05-07 14:16 | 8.38382 | 42.42104 | 37880 ft | 497 kts | 156° |
| 2026-05-07 14:17 | 8.32078 | 42.44986 | 37886 ft | 496 kts | 156° |
| 2026-05-07 14:17 | 8.25809 | 42.47852 | 37898 ft | 497 kts | 156° |
| 2026-05-07 14:18 | 8.19480 | 42.50746 | 37885 ft | 497 kts | 155° |
| 2026-05-07 14:18 | 8.13223 | 42.53608 | 37881 ft | 496 kts | 155° |
| 2026-05-07 14:19 | 8.06922 | 42.56488 | 37880 ft | 497 kts | 156° |
| 2026-05-07 14:19 | 8.00616 | 42.59369 | 37873 ft | 497 kts | 156° |
| 2026-05-07 14:20 | 7.94311 | 42.62249 | 37874 ft | 497 kts | 155° |
| 2026-05-07 14:20 | 7.88048 | 42.65109 | 37884 ft | 496 kts | 155° |
| 2026-05-07 14:21 | 7.81733 | 42.67992 | 37866 ft | 496 kts | 155° |
| 2026-05-07 14:21 | 7.75463 | 42.70854 | 37862 ft | 497 kts | 155° |
| 2026-05-07 14:22 | 7.69142 | 42.73738 | 37875 ft | 497 kts | 155° |
| 2026-05-07 14:22 | 7.62876 | 42.76595 | 37873 ft | 497 kts | 155° |
| 2026-05-07 14:23 | 7.56557 | 42.79476 | 37873 ft | 497 kts | 155° |
| 2026-05-07 14:23 | 7.50280 | 42.82337 | 37873 ft | 497 kts | 155° |
| 2026-05-07 14:24 | 7.43946 | 42.85223 | 37856 ft | 498 kts | 155° |
| 2026-05-07 14:24 | 7.37659 | 42.88087 | 37857 ft | 498 kts | 155° |
| 2026-05-07 14:25 | 7.31360 | 42.90955 | 37866 ft | 498 kts | 155° |
| 2026-05-07 14:25 | 7.25023 | 42.93840 | 37868 ft | 498 kts | 155° |
| 2026-05-07 14:26 | 7.18730 | 42.96704 | 37867 ft | 498 kts | 155° |
| 2026-05-07 14:26 | 7.12423 | 42.99573 | 37849 ft | 498 kts | 155° |
| 2026-05-07 14:27 | 7.06103 | 43.02447 | 37841 ft | 498 kts | 155° |
| 2026-05-07 14:27 | 6.99765 | 43.05329 | 37850 ft | 499 kts | 155° |
| 2026-05-07 14:28 | 6.93448 | 43.08203 | 37838 ft | 499 kts | 155° |
| 2026-05-07 14:28 | 6.87158 | 43.11075 | 37850 ft | 499 kts | 155° |
| 2026-05-07 14:29 | 6.80811 | 43.13975 | 37854 ft | 499 kts | 155° |
| 2026-05-07 14:29 | 6.74510 | 43.16851 | 37831 ft | 499 kts | 155° |
| 2026-05-07 14:30 | 6.68159 | 43.19748 | 37849 ft | 499 kts | 155° |
| 2026-05-07 14:30 | 6.61821 | 43.22638 | 37838 ft | 499 kts | 155° |
| 2026-05-07 14:31 | 6.55515 | 43.25513 | 37846 ft | 498 kts | 155° |
| 2026-05-07 14:31 | 6.49215 | 43.28383 | 37839 ft | 500 kts | 155° |
| 2026-05-07 14:32 | 6.42890 | 43.31266 | 37838 ft | 499 kts | 155° |
| 2026-05-07 14:32 | 6.36540 | 43.34157 | 37819 ft | 500 kts | 155° |
| 2026-05-07 14:33 | 6.30216 | 43.37038 | 37830 ft | 500 kts | 155° |
| 2026-05-07 14:33 | 6.23862 | 43.39930 | 37832 ft | 499 kts | 155° |
| 2026-05-07 14:34 | 6.17549 | 43.42804 | 37832 ft | 500 kts | 155° |
| 2026-05-07 14:34 | 6.11245 | 43.45672 | 37829 ft | 499 kts | 155° |
| 2026-05-07 14:35 | 6.04899 | 43.48559 | 37827 ft | 498 kts | 155° |
| 2026-05-07 14:35 | 5.98600 | 43.51423 | 37836 ft | 497 kts | 155° |
| 2026-05-07 14:36 | 5.92315 | 43.54280 | 37837 ft | 497 kts | 155° |
| 2026-05-07 14:36 | 5.85993 | 43.57154 | 37834 ft | 497 kts | 155° |
| 2026-05-07 14:37 | 5.79711 | 43.60009 | 37845 ft | 497 kts | 155° |
| 2026-05-07 14:37 | 5.70249 | 43.64307 | 37849 ft | 497 kts | 155° |
| 2026-05-07 14:38 | 5.63977 | 43.67159 | 37849 ft | 497 kts | 155° |
| 2026-05-07 14:38 | 5.57646 | 43.70044 | 37848 ft | 497 kts | 155° |
| 2026-05-07 14:39 | 5.51375 | 43.72902 | 37851 ft | 497 kts | 155° |
| 2026-05-07 14:39 | 5.45044 | 43.75784 | 37855 ft | 499 kts | 154° |
| 2026-05-07 14:40 | 5.38720 | 43.78665 | 37854 ft | 501 kts | 154° |
| 2026-05-07 14:40 | 5.32398 | 43.81544 | 37854 ft | 501 kts | 154° |
| 2026-05-07 14:41 | 5.26043 | 43.84436 | 37857 ft | 499 kts | 155° |
| 2026-05-07 14:41 | 5.19766 | 43.87293 | 37857 ft | 496 kts | 155° |
| 2026-05-07 14:42 | 5.13446 | 43.90168 | 37862 ft | 496 kts | 155° |
| 2026-05-07 14:42 | 5.07178 | 43.93018 | 37864 ft | 496 kts | 155° |
| 2026-05-07 14:43 | 5.00914 | 43.95867 | 37872 ft | 496 kts | 154° |
| 2026-05-07 14:43 | 4.94606 | 43.98734 | 37870 ft | 496 kts | 154° |
| 2026-05-07 14:44 | 4.88345 | 44.01573 | 37879 ft | 496 kts | 155° |
| 2026-05-07 14:44 | 4.82045 | 44.04379 | 37885 ft | 497 kts | 155° |
| 2026-05-07 14:45 | 4.75735 | 44.07178 | 37880 ft | 497 kts | 156° |
| 2026-05-07 14:45 | 4.69393 | 44.09998 | 37959 ft | 498 kts | 155° |
| 2026-05-07 14:46 | 4.66208 | 44.11416 | 38193 ft | 498 kts | 155° |
| 2026-05-07 14:46 | 4.63067 | 44.12815 | 38346 ft | 499 kts | 156° |
| 2026-05-07 14:46 | 4.59885 | 44.14233 | 38497 ft | 499 kts | 156° |
| 2026-05-07 14:46 | 4.56694 | 44.15655 | 38626 ft | 500 kts | 156° |
| 2026-05-07 14:47 | 4.53525 | 44.17066 | 38766 ft | 501 kts | 155° |
| 2026-05-07 14:47 | 4.50361 | 44.18475 | 38867 ft | 502 kts | 155° |
| 2026-05-07 14:47 | 4.43973 | 44.21320 | 38879 ft | 499 kts | 156° |
| 2026-05-07 14:48 | 4.37664 | 44.24129 | 38875 ft | 499 kts | 155° |
| 2026-05-07 14:48 | 4.31297 | 44.26963 | 38867 ft | 498 kts | 156° |
| 2026-05-07 14:49 | 4.24981 | 44.29773 | 38864 ft | 498 kts | 156° |
| 2026-05-07 14:49 | 4.18616 | 44.32606 | 38860 ft | 499 kts | 156° |
| 2026-05-07 14:50 | 4.12286 | 44.35422 | 38860 ft | 500 kts | 156° |
| 2026-05-07 14:50 | 4.05941 | 44.38245 | 38860 ft | 500 kts | 156° |
| 2026-05-07 14:51 | 3.99547 | 44.41088 | 38860 ft | 500 kts | 156° |
| 2026-05-07 14:51 | 3.93194 | 44.43912 | 38858 ft | 500 kts | 156° |
| 2026-05-07 14:52 | 3.86869 | 44.46724 | 38857 ft | 498 kts | 156° |
| 2026-05-07 14:52 | 3.80513 | 44.49549 | 38851 ft | 500 kts | 157° |
| 2026-05-07 14:53 | 3.74141 | 44.52381 | 38856 ft | 500 kts | 157° |
| 2026-05-07 14:53 | 3.67797 | 44.55200 | 38853 ft | 501 kts | 157° |
| 2026-05-07 14:54 | 3.62484 | 44.57560 | 38854 ft | 501 kts | 156° |
| 2026-05-07 14:54 | 3.56112 | 44.60391 | 38855 ft | 500 kts | 156° |
| 2026-05-07 14:55 | 3.49761 | 44.63212 | 38854 ft | 500 kts | 157° |
| 2026-05-07 14:55 | 3.43413 | 44.66031 | 38854 ft | 500 kts | 157° |
| 2026-05-07 14:56 | 3.37060 | 44.68851 | 38852 ft | 501 kts | 157° |
| 2026-05-07 14:56 | 3.30672 | 44.71688 | 38854 ft | 502 kts | 157° |
| 2026-05-07 14:57 | 3.24289 | 44.74521 | 38855 ft | 502 kts | 157° |
| 2026-05-07 14:57 | 3.17934 | 44.77342 | 38854 ft | 500 kts | 157° |
| 2026-05-07 14:58 | 3.11557 | 44.80171 | 38853 ft | 499 kts | 157° |
| 2026-05-07 14:58 | 3.05237 | 44.82976 | 38854 ft | 499 kts | 157° |
| 2026-05-07 14:59 | 2.98865 | 44.85803 | 38853 ft | 499 kts | 157° |
| 2026-05-07 14:59 | 2.92556 | 44.88602 | 38854 ft | 499 kts | 157° |
| 2026-05-07 15:00 | 2.86179 | 44.91429 | 38856 ft | 498 kts | 157° |
| 2026-05-07 15:00 | 2.79844 | 44.94239 | 38857 ft | 498 kts | 157° |
| 2026-05-07 15:01 | 2.73536 | 44.97036 | 38857 ft | 498 kts | 157° |
| 2026-05-07 15:01 | 2.67185 | 44.99853 | 38858 ft | 497 kts | 157° |
| 2026-05-07 15:02 | 2.60869 | 45.02653 | 38857 ft | 498 kts | 157° |
| 2026-05-07 15:02 | 2.54542 | 45.05458 | 38857 ft | 498 kts | 158° |
| 2026-05-07 15:03 | 2.48237 | 45.08252 | 38856 ft | 498 kts | 158° |
| 2026-05-07 15:03 | 2.41885 | 45.11067 | 38857 ft | 498 kts | 157° |
| 2026-05-07 15:04 | 2.35539 | 45.13880 | 38857 ft | 497 kts | 157° |
| 2026-05-07 15:04 | 2.29240 | 45.16671 | 38856 ft | 497 kts | 157° |
| 2026-05-07 15:05 | 2.22905 | 45.19477 | 38860 ft | 497 kts | 157° |
| 2026-05-07 15:05 | 2.16609 | 45.22267 | 38864 ft | 496 kts | 158° |
| 2026-05-07 15:06 | 2.10304 | 45.25059 | 38831 ft | 497 kts | 158° |
| 2026-05-07 15:06 | 2.03996 | 45.27854 | 38830 ft | 497 kts | 158° |
| 2026-05-07 15:07 | 1.97633 | 45.30666 | 38829 ft | 497 kts | 158° |
| 2026-05-07 15:07 | 1.91292 | 45.33390 | 38831 ft | 497 kts | 158° |
| 2026-05-07 15:08 | 1.84939 | 45.36098 | 38840 ft | 497 kts | 158° |
| 2026-05-07 15:08 | 1.78605 | 45.38809 | 38850 ft | 497 kts | 158° |
| 2026-05-07 15:09 | 1.72223 | 45.41549 | 38859 ft | 497 kts | 158° |
| 2026-05-07 15:09 | 1.65899 | 45.44267 | 38865 ft | 497 kts | 158° |
| 2026-05-07 15:10 | 1.59570 | 45.46986 | 38866 ft | 496 kts | 158° |
| 2026-05-07 15:10 | 1.53236 | 45.49708 | 38868 ft | 496 kts | 158° |
| 2026-05-07 15:11 | 1.46879 | 45.52439 | 38869 ft | 496 kts | 158° |
| 2026-05-07 15:11 | 1.40551 | 45.55156 | 38871 ft | 496 kts | 158° |
| 2026-05-07 15:12 | 1.34192 | 45.57887 | 38869 ft | 496 kts | 158° |
| 2026-05-07 15:12 | 1.27871 | 45.60602 | 38871 ft | 496 kts | 158° |
| 2026-05-07 15:13 | 1.21496 | 45.63340 | 38868 ft | 497 kts | 158° |
| 2026-05-07 15:13 | 1.15167 | 45.66057 | 38867 ft | 497 kts | 158° |
| 2026-05-07 15:14 | 1.08788 | 45.68796 | 38871 ft | 497 kts | 158° |
| 2026-05-07 15:14 | 1.02464 | 45.71511 | 38869 ft | 497 kts | 158° |
| 2026-05-07 15:15 | 0.96130 | 45.74231 | 38872 ft | 496 kts | 158° |
| 2026-05-07 15:15 | 0.89758 | 45.76967 | 38874 ft | 496 kts | 158° |
| 2026-05-07 15:16 | 0.83442 | 45.79679 | 38873 ft | 496 kts | 158° |
| 2026-05-07 15:16 | 0.77071 | 45.82414 | 38873 ft | 496 kts | 158° |
| 2026-05-07 15:17 | 0.70751 | 45.85127 | 38875 ft | 496 kts | 158° |
| 2026-05-07 15:17 | 0.64403 | 45.87852 | 38876 ft | 496 kts | 158° |
| 2026-05-07 15:18 | 0.58092 | 45.90561 | 38871 ft | 495 kts | 158° |
| 2026-05-07 15:18 | 0.51733 | 45.93303 | 38874 ft | 496 kts | 157° |
| 2026-05-07 15:19 | 0.45427 | 45.96069 | 38875 ft | 496 kts | 157° |
| 2026-05-07 15:19 | 0.39120 | 45.98841 | 38875 ft | 496 kts | 157° |
| 2026-05-07 15:20 | 0.32784 | 46.01620 | 38879 ft | 496 kts | 157° |
| 2026-05-07 15:20 | 0.26478 | 46.04381 | 38877 ft | 496 kts | 157° |
| 2026-05-07 15:21 | 0.20164 | 46.07145 | 38879 ft | 496 kts | 157° |
| 2026-05-07 15:21 | 0.13820 | 46.09922 | 38877 ft | 496 kts | 158° |
| 2026-05-07 15:22 | 0.07508 | 46.12686 | 38879 ft | 496 kts | 158° |
| 2026-05-07 15:22 | 0.01157 | 46.15466 | 38878 ft | 496 kts | 158° |
| 2026-05-07 15:23 | -0.05161 | 46.18232 | 38875 ft | 496 kts | 157° |
| 2026-05-07 15:23 | -0.11472 | 46.20995 | 38876 ft | 497 kts | 158° |
| 2026-05-07 15:24 | -0.17791 | 46.23762 | 38878 ft | 497 kts | 158° |
| 2026-05-07 15:24 | -0.24153 | 46.26524 | 38878 ft | 497 kts | 158° |
| 2026-05-07 15:25 | -0.30504 | 46.29218 | 38880 ft | 497 kts | 158° |
| 2026-05-07 15:25 | -0.36906 | 46.31932 | 38879 ft | 497 kts | 158° |
| 2026-05-07 15:26 | -0.43240 | 46.34628 | 38879 ft | 498 kts | 158° |
| 2026-05-07 15:26 | -0.49633 | 46.37355 | 38879 ft | 498 kts | 158° |
| 2026-05-07 15:27 | -0.55986 | 46.40065 | 38877 ft | 498 kts | 158° |
| 2026-05-07 15:27 | -0.62337 | 46.42775 | 38878 ft | 498 kts | 157° |
| 2026-05-07 15:28 | -0.68699 | 46.45489 | 38879 ft | 497 kts | 158° |
| 2026-05-07 15:28 | -0.75077 | 46.48210 | 38881 ft | 497 kts | 158° |
| 2026-05-07 15:29 | -0.81426 | 46.50919 | 38882 ft | 498 kts | 158° |
| 2026-05-07 15:29 | -0.87783 | 46.53630 | 38882 ft | 497 kts | 157° |
| 2026-05-07 15:30 | -0.94159 | 46.56350 | 38881 ft | 497 kts | 157° |
| 2026-05-07 15:30 | -1.00490 | 46.59052 | 38882 ft | 496 kts | 157° |
| 2026-05-07 15:31 | -1.06860 | 46.61770 | 38881 ft | 497 kts | 157° |
| 2026-05-07 15:31 | -1.13206 | 46.64478 | 38880 ft | 497 kts | 157° |
| 2026-05-07 15:32 | -1.19576 | 46.67197 | 38880 ft | 496 kts | 157° |
| 2026-05-07 15:32 | -1.25898 | 46.69894 | 38882 ft | 496 kts | 157° |
| 2026-05-07 15:33 | -1.32265 | 46.72611 | 38884 ft | 495 kts | 157° |
| 2026-05-07 15:33 | -1.38593 | 46.75312 | 38883 ft | 496 kts | 157° |
| 2026-05-07 15:34 | -1.44958 | 46.78028 | 38884 ft | 496 kts | 157° |
| 2026-05-07 15:34 | -1.51284 | 46.80728 | 38884 ft | 496 kts | 157° |
| 2026-05-07 15:35 | -1.57624 | 46.83435 | 38887 ft | 496 kts | 157° |
| 2026-05-07 15:35 | -1.63953 | 46.86137 | 38888 ft | 496 kts | 157° |
| 2026-05-07 15:36 | -1.70328 | 46.88858 | 38884 ft | 496 kts | 157° |
| 2026-05-07 15:36 | -1.76639 | 46.91553 | 38884 ft | 496 kts | 157° |
| 2026-05-07 15:37 | -1.82987 | 46.94263 | 38886 ft | 496 kts | 157° |
| 2026-05-07 15:37 | -1.89307 | 46.96963 | 38888 ft | 495 kts | 157° |
| 2026-05-07 15:38 | -1.95679 | 46.99684 | 38886 ft | 495 kts | 156° |
| 2026-05-07 15:38 | -2.01984 | 47.02376 | 38890 ft | 493 kts | 156° |
| 2026-05-07 15:39 | -2.08280 | 47.05065 | 38887 ft | 493 kts | 156° |
| 2026-05-07 15:39 | -2.14607 | 47.07768 | 38887 ft | 493 kts | 156° |
| 2026-05-07 15:40 | -2.20897 | 47.10455 | 38887 ft | 493 kts | 156° |
| 2026-05-07 15:40 | -2.27226 | 47.13158 | 38888 ft | 492 kts | 156° |
| 2026-05-07 15:41 | -2.33479 | 47.15830 | 38887 ft | 490 kts | 156° |
| 2026-05-07 15:41 | -2.38700 | 47.18061 | 38887 ft | 490 kts | 156° |
| 2026-05-07 15:42 | -2.46002 | 47.21183 | 38886 ft | 490 kts | 156° |
| 2026-05-07 15:42 | -2.51226 | 47.23415 | 38889 ft | 490 kts | 156° |
| 2026-05-07 15:43 | -2.57531 | 47.26110 | 38891 ft | 490 kts | 155° |
| 2026-05-07 15:43 | -2.63787 | 47.28785 | 38892 ft | 490 kts | 156° |
| 2026-05-07 15:44 | -2.70074 | 47.31473 | 38889 ft | 490 kts | 156° |
| 2026-05-07 15:44 | -2.76333 | 47.34149 | 38890 ft | 491 kts | 155° |
| 2026-05-07 15:45 | -2.82596 | 47.36827 | 38889 ft | 491 kts | 155° |
| 2026-05-07 15:45 | -2.88902 | 47.39524 | 38889 ft | 493 kts | 155° |
| 2026-05-07 15:46 | -2.98380 | 47.43580 | 38890 ft | 495 kts | 156° |
| 2026-05-07 15:47 | -3.04680 | 47.46276 | 38891 ft | 495 kts | 155° |
| 2026-05-07 15:47 | -3.11030 | 47.48993 | 38894 ft | 495 kts | 155° |
| 2026-05-07 15:48 | -3.17346 | 47.51694 | 38893 ft | 495 kts | 155° |
| 2026-05-07 15:48 | -3.23689 | 47.54409 | 38894 ft | 494 kts | 155° |
| 2026-05-07 15:49 | -3.29995 | 47.57109 | 38894 ft | 494 kts | 155° |
| 2026-05-07 15:49 | -3.36345 | 47.59827 | 38894 ft | 494 kts | 155° |
| 2026-05-07 15:50 | -3.42657 | 47.62529 | 38890 ft | 494 kts | 155° |
| 2026-05-07 15:50 | -3.48948 | 47.65224 | 38892 ft | 493 kts | 155° |
| 2026-05-07 15:51 | -3.55276 | 47.67934 | 38895 ft | 493 kts | 155° |
| 2026-05-07 15:51 | -3.61568 | 47.70629 | 38895 ft | 493 kts | 155° |
| 2026-05-07 15:52 | -3.67883 | 47.73334 | 38894 ft | 493 kts | 155° |
| 2026-05-07 15:52 | -3.74157 | 47.76023 | 39058 ft | 493 kts | 156° |
| 2026-05-07 15:52 | -3.77315 | 47.77376 | 39242 ft | 492 kts | 155° |
| 2026-05-07 15:53 | -3.80468 | 47.78728 | 39395 ft | 492 kts | 156° |
| 2026-05-07 15:53 | -3.83629 | 47.80083 | 39579 ft | 492 kts | 156° |
| 2026-05-07 15:53 | -3.86754 | 47.81422 | 39680 ft | 493 kts | 155° |
| 2026-05-07 15:54 | -3.93058 | 47.84124 | 39944 ft | 493 kts | 155° |
| 2026-05-07 15:54 | -3.99391 | 47.86839 | 40205 ft | 494 kts | 155° |
| 2026-05-07 15:54 | -4.02554 | 47.88195 | 40371 ft | 492 kts | 155° |
| 2026-05-07 15:55 | -4.05682 | 47.89537 | 40464 ft | 493 kts | 156° |
| 2026-05-07 15:55 | -4.08840 | 47.90892 | 40610 ft | 493 kts | 156° |
| 2026-05-07 15:55 | -4.11992 | 47.92244 | 40790 ft | 491 kts | 156° |
| 2026-05-07 15:56 | -4.18269 | 47.94936 | 40892 ft | 493 kts | 156° |
| 2026-05-07 15:56 | -4.24594 | 47.97653 | 40896 ft | 494 kts | 156° |
| 2026-05-07 15:57 | -4.30898 | 48.00354 | 40896 ft | 493 kts | 156° |
| 2026-05-07 15:57 | -4.37196 | 48.03048 | 40896 ft | 492 kts | 156° |
| 2026-05-07 15:58 | -4.43480 | 48.05737 | 40898 ft | 493 kts | 156° |
| 2026-05-07 15:58 | -4.49807 | 48.08448 | 40898 ft | 494 kts | 155° |
| 2026-05-07 15:59 | -4.56111 | 48.11151 | 40896 ft | 493 kts | 156° |
| 2026-05-07 15:59 | -4.62401 | 48.13847 | 40897 ft | 492 kts | 156° |
| 2026-05-07 16:00 | -4.68708 | 48.16551 | 40899 ft | 492 kts | 156° |
| 2026-05-07 16:00 | -4.75006 | 48.19252 | 40902 ft | 493 kts | 156° |
| 2026-05-07 16:01 | -4.81311 | 48.21957 | 40899 ft | 493 kts | 156° |
| 2026-05-07 16:01 | -4.87633 | 48.24670 | 40898 ft | 493 kts | 156° |
| 2026-05-07 16:02 | -4.93950 | 48.27380 | 40898 ft | 493 kts | 156° |
| 2026-05-07 16:02 | -5.00233 | 48.30076 | 40897 ft | 494 kts | 156° |
| 2026-05-07 16:03 | -5.06557 | 48.32792 | 40902 ft | 495 kts | 156° |
| 2026-05-07 16:03 | -5.12862 | 48.35499 | 40904 ft | 494 kts | 156° |
| 2026-05-07 16:04 | -5.19194 | 48.38218 | 40905 ft | 494 kts | 156° |
| 2026-05-07 16:04 | -5.25528 | 48.40939 | 40904 ft | 495 kts | 156° |
| 2026-05-07 16:05 | -5.31842 | 48.43652 | 40901 ft | 495 kts | 156° |
| 2026-05-07 16:05 | -5.38195 | 48.46383 | 40906 ft | 494 kts | 156° |
| 2026-05-07 16:06 | -5.44475 | 48.49082 | 40909 ft | 493 kts | 156° |
| 2026-05-07 16:06 | -5.50784 | 48.51795 | 40910 ft | 494 kts | 156° |
| 2026-05-07 16:07 | -5.57130 | 48.54524 | 40905 ft | 495 kts | 156° |
| 2026-05-07 16:07 | -5.63424 | 48.57231 | 40907 ft | 494 kts | 156° |
| 2026-05-07 16:08 | -5.69748 | 48.59952 | 40909 ft | 493 kts | 156° |
| 2026-05-07 16:08 | -5.76044 | 48.62662 | 40911 ft | 495 kts | 156° |
| 2026-05-07 16:09 | -5.82382 | 48.65390 | 40909 ft | 496 kts | 156° |
| 2026-05-07 16:09 | -5.88736 | 48.68126 | 40910 ft | 494 kts | 156° |
| 2026-05-07 16:10 | -5.95034 | 48.70838 | 40912 ft | 494 kts | 156° |
| 2026-05-07 16:10 | -6.01379 | 48.73572 | 40910 ft | 495 kts | 156° |
| 2026-05-07 16:11 | -6.07703 | 48.76297 | 40908 ft | 496 kts | 156° |
| 2026-05-07 16:11 | -6.14028 | 48.79023 | 40910 ft | 494 kts | 156° |
| 2026-05-07 16:12 | -6.20327 | 48.81739 | 40916 ft | 494 kts | 156° |
| 2026-05-07 16:12 | -6.26678 | 48.84477 | 40913 ft | 495 kts | 156° |
| 2026-05-07 16:13 | -6.32986 | 48.87199 | 40911 ft | 495 kts | 157° |
| 2026-05-07 16:13 | -6.39335 | 48.89938 | 40913 ft | 495 kts | 156° |
| 2026-05-07 16:14 | -6.45628 | 48.92654 | 40918 ft | 495 kts | 157° |
| 2026-05-07 16:14 | -6.51988 | 48.95399 | 40918 ft | 496 kts | 157° |
| 2026-05-07 16:15 | -6.58312 | 48.98130 | 40916 ft | 496 kts | 157° |
| 2026-05-07 16:15 | -6.64634 | 49.00861 | 40917 ft | 495 kts | 157° |
| 2026-05-07 16:16 | -6.70983 | 49.03604 | 40914 ft | 495 kts | 157° |
| 2026-05-07 16:16 | -6.77302 | 49.06335 | 40917 ft | 497 kts | 157° |
| 2026-05-07 16:17 | -6.83673 | 49.09089 | 40919 ft | 496 kts | 157° |
| 2026-05-07 16:17 | -6.89987 | 49.11819 | 40921 ft | 494 kts | 157° |
| 2026-05-07 16:18 | -6.96298 | 49.14550 | 40920 ft | 495 kts | 158° |
| 2026-05-07 16:18 | -7.02647 | 49.17297 | 40924 ft | 497 kts | 157° |
| 2026-05-07 16:19 | -7.08973 | 49.20034 | 40922 ft | 496 kts | 157° |
| 2026-05-07 16:19 | -7.15317 | 49.22781 | 40921 ft | 495 kts | 158° |
| 2026-05-07 16:20 | -7.21623 | 49.25512 | 40922 ft | 496 kts | 158° |
| 2026-05-07 16:20 | -7.27954 | 49.28253 | 40923 ft | 496 kts | 158° |
| 2026-05-07 16:21 | -7.34311 | 49.31007 | 40927 ft | 495 kts | 158° |
| 2026-05-07 16:21 | -7.40624 | 49.33744 | 40926 ft | 495 kts | 158° |
| 2026-05-07 16:22 | -7.46937 | 49.36481 | 40926 ft | 496 kts | 158° |
| 2026-05-07 16:22 | -7.53267 | 49.39226 | 40926 ft | 496 kts | 158° |
| 2026-05-07 16:23 | -7.59614 | 49.41980 | 40923 ft | 494 kts | 158° |
| 2026-05-07 16:23 | -7.65916 | 49.44715 | 40926 ft | 494 kts | 158° |
| 2026-05-07 16:24 | -7.72262 | 49.47470 | 40928 ft | 496 kts | 158° |
| 2026-05-07 16:24 | -7.78582 | 49.50214 | 40929 ft | 495 kts | 158° |
| 2026-05-07 16:25 | -7.84884 | 49.52952 | 40933 ft | 494 kts | 158° |
| 2026-05-07 16:25 | -7.91236 | 49.55712 | 40931 ft | 496 kts | 158° |
| 2026-05-07 16:26 | -7.97574 | 49.58467 | 40930 ft | 497 kts | 158° |
| 2026-05-07 16:26 | -8.03932 | 49.61232 | 40929 ft | 496 kts | 158° |
| 2026-05-07 16:27 | -8.10251 | 49.63981 | 40931 ft | 496 kts | 158° |
| 2026-05-07 16:27 | -8.16570 | 49.66731 | 40929 ft | 498 kts | 158° |
| 2026-05-07 16:28 | -8.22956 | 49.69510 | 40931 ft | 497 kts | 158° |
| 2026-05-07 16:28 | -8.29280 | 49.72263 | 40930 ft | 496 kts | 158° |
| 2026-05-07 16:29 | -8.35631 | 49.75031 | 40927 ft | 496 kts | 158° |
| 2026-05-07 16:29 | -8.41957 | 49.77787 | 40934 ft | 499 kts | 158° |
| 2026-05-07 16:30 | -8.48351 | 49.80573 | 40936 ft | 498 kts | 157° |
| 2026-05-07 16:30 | -8.54679 | 49.83334 | 40938 ft | 496 kts | 158° |
| 2026-05-07 16:31 | -8.59971 | 49.85642 | 40939 ft | 497 kts | 158° |
| 2026-05-07 16:31 | -8.66323 | 49.88413 | 40933 ft | 498 kts | 158° |
| 2026-05-07 16:32 | -8.72708 | 49.91201 | 40930 ft | 497 kts | 157° |
| 2026-05-07 16:32 | -8.79018 | 49.93957 | 40937 ft | 497 kts | 157° |
| 2026-05-07 16:33 | -8.85376 | 49.96734 | 40937 ft | 498 kts | 157° |
| 2026-05-07 16:33 | -8.91762 | 49.99525 | 40937 ft | 498 kts | 157° |
| 2026-05-07 16:34 | -8.98078 | 50.02286 | 40937 ft | 496 kts | 157° |
| 2026-05-07 16:34 | -9.04438 | 50.05067 | 40939 ft | 498 kts | 157° |
| 2026-05-07 16:35 | -9.10822 | 50.07860 | 40938 ft | 499 kts | 157° |
| 2026-05-07 16:35 | -9.17159 | 50.10634 | 40937 ft | 497 kts | 157° |
| 2026-05-07 16:36 | -9.23526 | 50.13422 | 40940 ft | 497 kts | 157° |
| 2026-05-07 16:36 | -9.29854 | 50.16194 | 40939 ft | 499 kts | 157° |
| 2026-05-07 16:37 | -9.36233 | 50.18989 | 40942 ft | 498 kts | 157° |
| 2026-05-07 16:37 | -9.42555 | 50.21760 | 40940 ft | 497 kts | 157° |
| 2026-05-07 16:38 | -9.48925 | 50.24554 | 40942 ft | 499 kts | 157° |
| 2026-05-07 16:38 | -9.55306 | 50.27353 | 40940 ft | 500 kts | 157° |
| 2026-05-07 16:39 | -9.61696 | 50.30158 | 40946 ft | 498 kts | 157° |
| 2026-05-07 16:39 | -9.68040 | 50.32944 | 40943 ft | 497 kts | 158° |
| 2026-05-07 16:40 | -9.74366 | 50.35723 | 40944 ft | 499 kts | 157° |
| 2026-05-07 16:40 | -9.80753 | 50.38529 | 40946 ft | 498 kts | 157° |
| 2026-05-07 16:41 | -9.87079 | 50.41310 | 40948 ft | 497 kts | 157° |
| 2026-05-07 16:41 | -9.93452 | 50.44114 | 40948 ft | 499 kts | 157° |
| 2026-05-07 16:42 | -9.99804 | 50.46909 | 40943 ft | 498 kts | 158° |
| 2026-05-07 16:42 | -10.06167 | 50.49709 | 40945 ft | 496 kts | 157° |
| 2026-05-07 16:43 | -10.12478 | 50.52485 | 40946 ft | 497 kts | 158° |
| 2026-05-07 16:43 | -10.18861 | 50.55295 | 40947 ft | 498 kts | 157° |
| 2026-05-07 16:44 | -10.25193 | 50.58083 | 40945 ft | 496 kts | 157° |
| 2026-05-07 16:44 | -10.31498 | 50.60862 | 40951 ft | 495 kts | 157° |
| 2026-05-07 16:45 | -10.37799 | 50.63640 | 40947 ft | 496 kts | 157° |
| 2026-05-07 16:45 | -10.44112 | 50.66424 | 40950 ft | 496 kts | 157° |
| 2026-05-07 16:46 | -10.50449 | 50.69220 | 40949 ft | 495 kts | 158° |
| 2026-05-07 16:46 | -10.56789 | 50.72018 | 40949 ft | 495 kts | 158° |
| 2026-05-07 16:47 | -10.63089 | 50.74800 | 40949 ft | 495 kts | 157° |
| 2026-05-07 16:47 | -10.69380 | 50.77579 | 40949 ft | 494 kts | 157° |
| 2026-05-07 16:48 | -10.75703 | 50.80374 | 40950 ft | 494 kts | 157° |
| 2026-05-07 16:48 | -10.81987 | 50.83153 | 40949 ft | 495 kts | 157° |
| 2026-05-07 16:49 | -10.88305 | 50.85948 | 40950 ft | 493 kts | 157° |
| 2026-05-07 16:49 | -10.94575 | 50.88724 | 40957 ft | 492 kts | 157° |
| 2026-05-07 16:50 | -11.00878 | 50.91515 | 40952 ft | 493 kts | 158° |
| 2026-05-07 16:50 | -11.07148 | 50.94292 | 40957 ft | 493 kts | 157° |
| 2026-05-07 16:51 | -11.13438 | 50.97080 | 40960 ft | 492 kts | 158° |
| 2026-05-07 16:51 | -11.19699 | 50.99857 | 40958 ft | 491 kts | 157° |
| 2026-05-07 16:52 | -11.25977 | 51.02642 | 40956 ft | 491 kts | 157° |
| 2026-05-07 16:52 | -11.32252 | 51.05427 | 40958 ft | 490 kts | 157° |
| 2026-05-07 16:53 | -11.38475 | 51.08191 | 40957 ft | 490 kts | 157° |
| 2026-05-07 16:53 | -11.44758 | 51.10982 | 40959 ft | 491 kts | 157° |
| 2026-05-07 16:54 | -11.51005 | 51.13759 | 40963 ft | 490 kts | 157° |
| 2026-05-07 16:54 | -11.57225 | 51.16525 | 40963 ft | 490 kts | 157° |
| 2026-05-07 16:55 | -11.63513 | 51.19324 | 40960 ft | 491 kts | 157° |
| 2026-05-07 16:55 | -11.69754 | 51.22102 | 40961 ft | 490 kts | 157° |
| 2026-05-07 16:56 | -11.76021 | 51.24892 | 40962 ft | 489 kts | 157° |
| 2026-05-07 16:56 | -11.85342 | 51.29047 | 40965 ft | 487 kts | 156° |
| 2026-05-07 16:57 | -11.91545 | 51.31813 | 40965 ft | 487 kts | 156° |
| 2026-05-07 16:57 | -11.97739 | 51.34577 | 40964 ft | 487 kts | 157° |
| 2026-05-07 16:58 | -12.03977 | 51.37362 | 40965 ft | 489 kts | 157° |
| 2026-05-07 16:58 | -12.10184 | 51.40133 | 40964 ft | 486 kts | 156° |
| 2026-05-07 16:59 | -12.16353 | 51.42891 | 40967 ft | 484 kts | 156° |
| 2026-05-07 16:59 | -12.22535 | 51.45656 | 40965 ft | 484 kts | 157° |
| 2026-05-07 17:00 | -12.28714 | 51.48420 | 40975 ft | 484 kts | 157° |
| 2026-05-07 17:00 | -12.34858 | 51.51170 | 40976 ft | 484 kts | 156° |
| 2026-05-07 17:01 | -12.41001 | 51.53920 | 40971 ft | 481 kts | 156° |
| 2026-05-07 17:01 | -12.47126 | 51.56665 | 40972 ft | 479 kts | 156° |
| 2026-05-07 17:02 | -12.53216 | 51.59397 | 40975 ft | 480 kts | 156° |
| 2026-05-07 17:02 | -12.59330 | 51.62139 | 40976 ft | 480 kts | 156° |
| 2026-05-07 17:03 | -12.65431 | 51.64877 | 40977 ft | 479 kts | 156° |
| 2026-05-07 17:03 | -12.71552 | 51.67625 | 40977 ft | 477 kts | 156° |
| 2026-05-07 17:04 | -12.77610 | 51.70347 | 40981 ft | 477 kts | 156° |
| 2026-05-07 17:04 | -12.83691 | 51.73081 | 40980 ft | 475 kts | 156° |
| 2026-05-07 17:05 | -12.89761 | 51.75810 | 40984 ft | 475 kts | 156° |
| 2026-05-07 17:05 | -12.95807 | 51.78531 | 40982 ft | 477 kts | 156° |
| 2026-05-07 17:06 | -13.01858 | 51.81256 | 40985 ft | 475 kts | 156° |
| 2026-05-07 17:06 | -13.07886 | 51.83971 | 40984 ft | 473 kts | 156° |
| 2026-05-07 17:07 | -13.13911 | 51.86687 | 40980 ft | 474 kts | 156° |
| 2026-05-07 17:07 | -13.19958 | 51.89414 | 40979 ft | 475 kts | 156° |
| 2026-05-07 17:08 | -13.26014 | 51.92146 | 40982 ft | 472 kts | 156° |
| 2026-05-07 17:08 | -13.32016 | 51.94856 | 40982 ft | 473 kts | 156° |
| 2026-05-07 17:09 | -13.38061 | 51.97587 | 40986 ft | 474 kts | 156° |
| 2026-05-07 17:09 | -13.44066 | 52.00301 | 40982 ft | 472 kts | 156° |
| 2026-05-07 17:10 | -13.50090 | 52.03026 | 40987 ft | 472 kts | 156° |
| 2026-05-07 17:10 | -13.56091 | 52.05740 | 40988 ft | 475 kts | 156° |
| 2026-05-07 17:11 | -13.62142 | 52.08479 | 40987 ft | 474 kts | 156° |
| 2026-05-07 17:11 | -13.68168 | 52.11208 | 40994 ft | 473 kts | 156° |
| 2026-05-07 17:12 | -13.74213 | 52.13947 | 40993 ft | 475 kts | 156° |
| 2026-05-07 17:12 | -13.80235 | 52.16678 | 40991 ft | 474 kts | 156° |
| 2026-05-07 17:13 | -13.86278 | 52.19420 | 40993 ft | 472 kts | 156° |
| 2026-05-07 17:13 | -13.92273 | 52.22142 | 40995 ft | 474 kts | 156° |
| 2026-05-07 17:14 | -13.98346 | 52.24900 | 40991 ft | 475 kts | 156° |
| 2026-05-07 17:14 | -14.04364 | 52.27635 | 40991 ft | 473 kts | 156° |
| 2026-05-07 17:15 | -14.10424 | 52.30391 | 40993 ft | 475 kts | 156° |
| 2026-05-07 17:15 | -14.16464 | 52.33139 | 40994 ft | 476 kts | 156° |
| 2026-05-07 17:16 | -14.22535 | 52.35903 | 40997 ft | 475 kts | 156° |
| 2026-05-07 17:16 | -14.28567 | 52.38651 | 40996 ft | 477 kts | 156° |
| 2026-05-07 17:17 | -14.34652 | 52.41424 | 41000 ft | 479 kts | 156° |
| 2026-05-07 17:17 | -14.39722 | 52.43737 | 41001 ft | 478 kts | 156° |
| 2026-05-07 17:18 | -14.45790 | 52.46505 | 40999 ft | 477 kts | 156° |
| 2026-05-07 17:18 | -14.51890 | 52.49290 | 41002 ft | 478 kts | 156° |
| 2026-05-07 17:19 | -14.57955 | 52.52061 | 41002 ft | 478 kts | 156° |
| 2026-05-07 17:19 | -14.64000 | 52.54825 | 41003 ft | 477 kts | 156° |
| 2026-05-07 17:20 | -14.70090 | 52.57610 | 41002 ft | 478 kts | 156° |
| 2026-05-07 17:20 | -14.76168 | 52.60392 | 41000 ft | 478 kts | 156° |
| 2026-05-07 17:21 | -14.82246 | 52.63176 | 41000 ft | 477 kts | 156° |
| 2026-05-07 17:21 | -14.88312 | 52.65956 | 41005 ft | 479 kts | 156° |
| 2026-05-07 17:22 | -14.94421 | 52.68757 | 41003 ft | 480 kts | 156° |
| 2026-05-07 17:22 | -15.00539 | 52.71564 | 41008 ft | 479 kts | 156° |
| 2026-05-07 17:23 | -15.06604 | 52.74348 | 41008 ft | 479 kts | 156° |
| 2026-05-07 17:23 | -15.12688 | 52.77144 | 41007 ft | 480 kts | 156° |
| 2026-05-07 17:24 | -15.18813 | 52.79960 | 41010 ft | 480 kts | 156° |
| 2026-05-07 17:24 | -15.24901 | 52.82759 | 41010 ft | 481 kts | 156° |
| 2026-05-07 17:25 | -15.31041 | 52.85586 | 41009 ft | 481 kts | 156° |
| 2026-05-07 17:25 | -15.37138 | 52.88394 | 41013 ft | 481 kts | 157° |
| 2026-05-07 17:26 | -15.43261 | 52.91216 | 41013 ft | 481 kts | 156° |
| 2026-05-07 17:26 | -15.49362 | 52.94029 | 41012 ft | 481 kts | 157° |
| 2026-05-07 17:27 | -15.55500 | 52.96863 | 41015 ft | 481 kts | 156° |
| 2026-05-07 17:27 | -15.61593 | 52.99676 | 41015 ft | 481 kts | 156° |
| 2026-05-07 17:28 | -15.67741 | 53.02517 | 41015 ft | 482 kts | 157° |
| 2026-05-07 17:28 | -15.73866 | 53.05349 | 41018 ft | 482 kts | 157° |
| 2026-05-07 17:29 | -15.79981 | 53.08178 | 41019 ft | 482 kts | 156° |
| 2026-05-07 17:29 | -15.86135 | 53.11027 | 41020 ft | 483 kts | 157° |
| 2026-05-07 17:30 | -15.92241 | 53.13857 | 41021 ft | 483 kts | 157° |
| 2026-05-07 17:30 | -15.98404 | 53.16714 | 41021 ft | 483 kts | 156° |
| 2026-05-07 17:31 | -16.04512 | 53.19547 | 41019 ft | 483 kts | 157° |
| 2026-05-07 17:31 | -16.10668 | 53.22406 | 41025 ft | 483 kts | 157° |
| 2026-05-07 17:32 | -16.16786 | 53.25248 | 41024 ft | 483 kts | 157° |
| 2026-05-07 17:32 | -16.22945 | 53.28110 | 41023 ft | 484 kts | 156° |
| 2026-05-07 17:33 | -16.29093 | 53.30971 | 41024 ft | 484 kts | 157° |
| 2026-05-07 17:33 | -16.35206 | 53.33818 | 41027 ft | 484 kts | 157° |
| 2026-05-07 17:34 | -16.40955 | 53.37498 | 41031 ft | 486 kts | 140° |
| 2026-05-07 17:34 | -16.45898 | 53.42282 | 41028 ft | 488 kts | 137° |
| 2026-05-07 17:35 | -16.50721 | 53.47290 | 41028 ft | 488 kts | 135° |
| 2026-05-07 17:35 | -16.55526 | 53.52325 | 41030 ft | 488 kts | 136° |
| 2026-05-07 17:36 | -16.60313 | 53.57313 | 41033 ft | 488 kts | 136° |
| 2026-05-07 17:36 | -16.65117 | 53.62296 | 41034 ft | 488 kts | 136° |
| 2026-05-07 17:37 | -16.69948 | 53.67310 | 41034 ft | 488 kts | 136° |
| 2026-05-07 17:37 | -16.74742 | 53.72288 | 41031 ft | 488 kts | 136° |
| 2026-05-07 17:38 | -16.79573 | 53.77311 | 41031 ft | 489 kts | 136° |
| 2026-05-07 17:38 | -16.84378 | 53.82310 | 41031 ft | 489 kts | 136° |
| 2026-05-07 17:39 | -16.89207 | 53.87339 | 41036 ft | 490 kts | 137° |
| 2026-05-07 17:39 | -16.94025 | 53.92358 | 41041 ft | 490 kts | 136° |
| 2026-05-07 17:40 | -16.98838 | 53.97378 | 41031 ft | 491 kts | 137° |
| 2026-05-07 17:40 | -17.03688 | 54.02438 | 41031 ft | 490 kts | 136° |
| 2026-05-07 17:41 | -17.08498 | 54.07462 | 41041 ft | 490 kts | 136° |
| 2026-05-07 17:41 | -17.13300 | 54.12481 | 41047 ft | 490 kts | 136° |
| 2026-05-07 17:42 | -17.18141 | 54.17547 | 41046 ft | 491 kts | 137° |
| 2026-05-07 17:42 | -17.22957 | 54.22586 | 41040 ft | 491 kts | 136° |
| 2026-05-07 17:43 | -17.27779 | 54.27639 | 41045 ft | 491 kts | 136° |
| 2026-05-07 17:43 | -17.32632 | 54.32728 | 41047 ft | 493 kts | 137° |
| 2026-05-07 17:44 | -17.37457 | 54.37791 | 41048 ft | 493 kts | 137° |
| 2026-05-07 17:44 | -17.42314 | 54.42890 | 41046 ft | 493 kts | 137° |
| 2026-05-07 17:45 | -17.47170 | 54.47994 | 41054 ft | 493 kts | 137° |
| 2026-05-07 17:45 | -17.52007 | 54.53082 | 41050 ft | 494 kts | 137° |
| 2026-05-07 17:46 | -17.56850 | 54.58180 | 41047 ft | 494 kts | 137° |
| 2026-05-07 17:46 | -17.61707 | 54.63297 | 41046 ft | 493 kts | 136° |
| 2026-05-07 17:47 | -17.66535 | 54.68388 | 41051 ft | 492 kts | 137° |
| 2026-05-07 17:47 | -17.71367 | 54.73488 | 41053 ft | 493 kts | 137° |
| 2026-05-07 17:48 | -17.76178 | 54.78566 | 41051 ft | 492 kts | 136° |
| 2026-05-07 17:48 | -17.81009 | 54.83676 | 41055 ft | 491 kts | 137° |
| 2026-05-07 17:49 | -17.85825 | 54.88768 | 41052 ft | 492 kts | 136° |
| 2026-05-07 17:49 | -17.90656 | 54.93885 | 41059 ft | 493 kts | 137° |
| 2026-05-07 17:50 | -17.95486 | 54.99001 | 41057 ft | 494 kts | 136° |
| 2026-05-07 17:50 | -18.00300 | 55.04106 | 41058 ft | 493 kts | 137° |
| 2026-05-07 17:51 | -18.05124 | 55.09226 | 41055 ft | 494 kts | 137° |
| 2026-05-07 17:51 | -18.09942 | 55.14341 | 41055 ft | 492 kts | 136° |
| 2026-05-07 17:52 | -18.14762 | 55.19466 | 41053 ft | 491 kts | 136° |
| 2026-05-07 17:52 | -18.19552 | 55.24563 | 41059 ft | 491 kts | 136° |
| 2026-05-07 17:53 | -18.24371 | 55.29695 | 41056 ft | 491 kts | 136° |
| 2026-05-07 17:53 | -18.29167 | 55.34805 | 41061 ft | 491 kts | 136° |
| 2026-05-07 17:54 | -18.33946 | 55.39903 | 41061 ft | 492 kts | 136° |
| 2026-05-07 17:54 | -18.38767 | 55.45055 | 41063 ft | 492 kts | 136° |
| 2026-05-07 17:55 | -18.43556 | 55.50172 | 41063 ft | 493 kts | 137° |
| 2026-05-07 17:55 | -18.48384 | 55.55336 | 41066 ft | 493 kts | 136° |
| 2026-05-07 17:56 | -18.53307 | 55.60311 | 41066 ft | 491 kts | 139° |
| 2026-05-07 17:56 | -18.58329 | 55.65233 | 41071 ft | 492 kts | 139° |
| 2026-05-07 17:57 | -18.62499 | 55.69352 | 41070 ft | 493 kts | 139° |
| 2026-05-07 17:57 | -18.68321 | 55.75126 | 41066 ft | 492 kts | 138° |
| 2026-05-07 17:58 | -18.73289 | 55.80064 | 41064 ft | 492 kts | 138° |
| 2026-05-07 17:58 | -18.78259 | 55.85009 | 41073 ft | 491 kts | 138° |
| 2026-05-07 17:59 | -18.83251 | 55.89980 | 41075 ft | 491 kts | 138° |
| 2026-05-07 17:59 | -18.88201 | 55.94914 | 40578 ft | 492 kts | 138° |
| 2026-05-07 18:00 | -18.90691 | 55.97397 | 40100 ft | 492 kts | 138° |
| 2026-05-07 18:00 | -18.93196 | 55.99896 | 39620 ft | 494 kts | 138° |
| 2026-05-07 18:00 | -18.95673 | 56.02369 | 39179 ft | 495 kts | 138° |
| 2026-05-07 18:00 | -18.98194 | 56.04886 | 38724 ft | 497 kts | 138° |
| 2026-05-07 18:01 | -19.00719 | 56.07408 | 38182 ft | 499 kts | 138° |
| 2026-05-07 18:01 | -19.03247 | 56.09935 | 37659 ft | 500 kts | 138° |
| 2026-05-07 18:01 | -19.05750 | 56.12438 | 37151 ft | 500 kts | 138° |
| 2026-05-07 18:01 | -19.08294 | 56.14984 | 36655 ft | 501 kts | 139° |
| 2026-05-07 18:02 | -19.13350 | 56.20045 | 35699 ft | 502 kts | 139° |
| 2026-05-07 18:02 | -19.15894 | 56.22591 | 35230 ft | 502 kts | 138° |
| 2026-05-07 18:02 | -19.18398 | 56.25102 | 34767 ft | 502 kts | 138° |
| 2026-05-07 18:03 | -19.20935 | 56.27646 | 34336 ft | 501 kts | 139° |
| 2026-05-07 18:03 | -19.23475 | 56.30194 | 33779 ft | 501 kts | 139° |
| 2026-05-07 18:03 | -19.26017 | 56.32743 | 33204 ft | 500 kts | 138° |
| 2026-05-07 18:03 | -19.28515 | 56.35250 | 32643 ft | 501 kts | 137° |
| 2026-05-07 18:04 | -19.31060 | 56.37806 | 32088 ft | 504 kts | 137° |
| 2026-05-07 18:04 | -19.33610 | 56.40370 | 31543 ft | 505 kts | 138° |
| 2026-05-07 18:04 | -19.36136 | 56.42908 | 30988 ft | 505 kts | 137° |
| 2026-05-07 18:04 | -19.38688 | 56.45475 | 30414 ft | 505 kts | 137° |
| 2026-05-07 18:05 | -19.41237 | 56.48040 | 29791 ft | 503 kts | 137° |
| 2026-05-07 18:05 | -19.42923 | 56.49737 | 29354 ft | 504 kts | 137° |
| 2026-05-07 18:05 | -19.46293 | 56.53131 | 28500 ft | 501 kts | 137° |
| 2026-05-07 18:05 | -19.48814 | 56.55672 | 27868 ft | 496 kts | 137° |
| 2026-05-07 18:06 | -19.50468 | 56.57339 | 27477 ft | 492 kts | 137° |
| 2026-05-07 18:06 | -19.52938 | 56.59830 | 26879 ft | 488 kts | 136° |
| 2026-05-07 18:06 | -19.55400 | 56.62313 | 26289 ft | 485 kts | 136° |
| 2026-05-07 18:06 | -19.57846 | 56.64781 | 25702 ft | 482 kts | 136° |
| 2026-05-07 18:07 | -19.60243 | 56.67201 | 25142 ft | 477 kts | 136° |
| 2026-05-07 18:07 | -19.62637 | 56.69619 | 24591 ft | 473 kts | 136° |
| 2026-05-07 18:07 | -19.64991 | 56.71998 | 24050 ft | 469 kts | 136° |
| 2026-05-07 18:07 | -19.67349 | 56.74381 | 23479 ft | 465 kts | 135° |
| 2026-05-07 18:08 | -19.69691 | 56.76751 | 22835 ft | 461 kts | 136° |
| 2026-05-07 18:08 | -19.72001 | 56.79089 | 22213 ft | 456 kts | 136° |
| 2026-05-07 18:08 | -19.74288 | 56.81405 | 21590 ft | 450 kts | 136° |
| 2026-05-07 18:08 | -19.76546 | 56.83692 | 20975 ft | 445 kts | 136° |
| 2026-05-07 18:09 | -19.78742 | 56.85918 | 20381 ft | 438 kts | 136° |
| 2026-05-07 18:09 | -19.80939 | 56.88146 | 19808 ft | 431 kts | 136° |
| 2026-05-07 18:09 | -19.83098 | 56.90335 | 19238 ft | 424 kts | 136° |
| 2026-05-07 18:09 | -19.85204 | 56.92471 | 18683 ft | 418 kts | 136° |
| 2026-05-07 18:10 | -19.87294 | 56.94592 | 18087 ft | 412 kts | 136° |
| 2026-05-07 18:10 | -19.89326 | 56.96653 | 17466 ft | 406 kts | 136° |
| 2026-05-07 18:10 | -19.91357 | 56.98715 | 16860 ft | 399 kts | 136° |
| 2026-05-07 18:10 | -19.93358 | 57.00746 | 16240 ft | 394 kts | 136° |
| 2026-05-07 18:11 | -19.95333 | 57.02752 | 15632 ft | 388 kts | 135° |
| 2026-05-07 18:11 | -19.97250 | 57.04700 | 15054 ft | 383 kts | 135° |
| 2026-05-07 18:11 | -19.99153 | 57.06636 | 14490 ft | 368 kts | 135° |
| 2026-05-07 18:11 | -20.00962 | 57.08475 | 13940 ft | 348 kts | 135° |
| 2026-05-07 18:12 | -20.02675 | 57.10218 | 13324 ft | 331 kts | 135° |
| 2026-05-07 18:12 | -20.04283 | 57.11856 | 12730 ft | 317 kts | 135° |
| 2026-05-07 18:12 | -20.05848 | 57.13450 | 12125 ft | 305 kts | 135° |
| 2026-05-07 18:12 | -20.07359 | 57.14990 | 11548 ft | 294 kts | 135° |
| 2026-05-07 18:13 | -20.08774 | 57.16432 | 10974 ft | 286 kts | 135° |
| 2026-05-07 18:13 | -20.10124 | 57.17810 | 10442 ft | 289 kts | 135° |
| 2026-05-07 18:13 | -20.11588 | 57.19304 | 9861 ft | 294 kts | 135° |
| 2026-05-07 18:13 | -20.13076 | 57.20823 | 9212 ft | 297 kts | 135° |
| 2026-05-07 18:14 | -20.14539 | 57.22314 | 8579 ft | 290 kts | 135° |
| 2026-05-07 18:14 | -20.15976 | 57.23779 | 8065 ft | 281 kts | 135° |
| 2026-05-07 18:14 | -20.17390 | 57.25222 | 7623 ft | 279 kts | 135° |
| 2026-05-07 18:14 | -20.18792 | 57.26654 | 7206 ft | 278 kts | 135° |
| 2026-05-07 18:15 | -20.20096 | 57.28127 | 6831 ft | 275 kts | 128° |
| 2026-05-07 18:15 | -20.21229 | 57.29744 | 6542 ft | 270 kts | 125° |
| 2026-05-07 18:15 | -20.22303 | 57.31360 | 6225 ft | 264 kts | 124° |
| 2026-05-07 18:15 | -20.23347 | 57.32940 | 6005 ft | 257 kts | 124° |
| 2026-05-07 18:16 | -20.24375 | 57.34493 | 5713 ft | 254 kts | 124° |
| 2026-05-07 18:16 | -20.25372 | 57.35997 | 5429 ft | 248 kts | 124° |
| 2026-05-07 18:16 | -20.26359 | 57.37484 | 5141 ft | 243 kts | 123° |
| 2026-05-07 18:16 | -20.27329 | 57.38946 | 4857 ft | 238 kts | 123° |
| 2026-05-07 18:17 | -20.28278 | 57.40374 | 4561 ft | 233 kts | 123° |
| 2026-05-07 18:17 | -20.29209 | 57.41747 | 4265 ft | 229 kts | 124° |
| 2026-05-07 18:17 | -20.30146 | 57.43119 | 4021 ft | 222 kts | 123° |
| 2026-05-07 18:17 | -20.31038 | 57.44422 | 3965 ft | 214 kts | 123° |
| 2026-05-07 18:18 | -20.31880 | 57.45656 | 3981 ft | 193 kts | 122° |
| 2026-05-07 18:18 | -20.32603 | 57.46795 | 4008 ft | 180 kts | 118° |
| 2026-05-07 18:18 | -20.33206 | 57.47954 | 3980 ft | 180 kts | 116° |
| 2026-05-07 18:18 | -20.33793 | 57.49142 | 3974 ft | 181 kts | 115° |
| 2026-05-07 18:19 | -20.34361 | 57.50326 | 3973 ft | 181 kts | 115° |
| 2026-05-07 18:19 | -20.34935 | 57.51523 | 3884 ft | 180 kts | 115° |
| 2026-05-07 18:19 | -20.35499 | 57.52700 | 3663 ft | 176 kts | 114° |
| 2026-05-07 18:19 | -20.36055 | 57.53858 | 3398 ft | 176 kts | 115° |
| 2026-05-07 18:20 | -20.36610 | 57.55011 | 3101 ft | 175 kts | 115° |
| 2026-05-07 18:20 | -20.37159 | 57.56152 | 2804 ft | 169 kts | 115° |
| 2026-05-07 18:20 | -20.37674 | 57.57223 | 2529 ft | 158 kts | 116° |
| 2026-05-07 18:20 | -20.38164 | 57.58242 | 2302 ft | 150 kts | 116° |
| 2026-05-07 18:21 | -20.38622 | 57.59197 | 2092 ft | 140 kts | 115° |
| 2026-05-07 18:21 | -20.39061 | 57.60108 | 1874 ft | 134 kts | 114° |